M I D A S
Marine Information and Data Acquisition System
Tripno 2157 of the Zeeleeuw from 2011-08-03 05:13:21 to 2011-08-03 14:39:46
Back to CruiseResearch ActivitiesStationsMapUnderway DataData graphs

EquipmentUnitsComment
TimeDGPSUTC
LatitudeDGPSDM.mWGS84
LongitudeDGPSDM.mWGS84
TemperatureSBE03/SBE38deg celciusITS90
ConductivitySBE21S/mITS90
SalinitySBE21 Practical Salinity Units
ChlorophylAChelsea fluorimeterg/lCalibrated in Aceton
Missing or incorrect values are displayed as -999
Sea surface data collected by the RV Zeeleeuw from 2011-08-03 05:09:19 to 2011-08-03 14:46:54
                                                                                    Next 1000 lines
Time Latitude Longitude Temperature Conductivity Salinity ChlorophylA
2011-08-03 05:09:28 51°13.61 2°56.062 22.4681 0.109438 0.557018 -3.020363
2011-08-03 05:09:34 51°13.61 2°56.059 22.4646 0.109541 0.557562 -3.020363
2011-08-03 05:09:39 51°13.611 2°56.056 22.4654 0.109644 0.558106 -3.020363
2011-08-03 05:09:44 51°13.612 2°56.052 22.491 0.109644 0.558106 -3.020363
2011-08-03 05:09:49 51°13.614 2°56.047 22.4814 0.109644 0.558106 -3.020363
2011-08-03 05:09:55 51°13.616 2°56.04 22.4965 0.109644 0.558106 -3.020363
2011-08-03 05:10:02 51°13.618 2°56.031 22.4937 0.109644 0.558115 -3.020363
2011-08-03 05:10:07 51°13.62 2°56.023 22.5042 0.109644 0.558115 -3.020363
2011-08-03 05:10:12 51°13.623 2°56.015 22.4934 0.109644 0.558106 -3.020363
2011-08-03 05:10:17 51°13.625 2°56.007 22.5026 0.109541 0.557571 -3.020363
2011-08-03 05:10:22 51°13.628 2°55.998 22.507 0.109541 0.557571 -3.020363
2011-08-03 05:10:27 51°13.63 2°55.988 22.5108 0.109541 0.557562 -3.020363
2011-08-03 05:10:32 51°13.633 2°55.979 22.5039 0.109438 0.557027 -3.020363
2011-08-03 05:10:37 51°13.636 2°55.969 22.5099 0.109438 0.557027 -3.020363
2011-08-03 05:10:42 51°13.639 2°55.959 22.4969 0.109335 0.556483 -3.020363
2011-08-03 05:10:47 51°13.642 2°55.949 22.5077 0.109335 0.556483 -3.020363
2011-08-03 05:10:53 51°13.646 2°55.936 22.5121 0.109335 0.556483 -3.020363
2011-08-03 05:10:58 51°13.649 2°55.926 22.5132 0.109335 0.556483 -3.020363
2011-08-03 05:11:02 51°13.652 2°55.917 22.5192 0.109335 0.556483 -3.020363
2011-08-03 05:11:08 51°13.657 2°55.904 22.5192 0.109335 0.556491 -3.020363
2011-08-03 05:11:12 51°13.66 2°55.895 22.5147 0.109232 0.555947 -3.020363
2011-08-03 05:11:17 51°13.664 2°55.884 22.5167 0.109232 0.555956 -3.020363
2011-08-03 05:11:22 51°13.668 2°55.873 22.5212 0.109232 0.555956 -3.020363
2011-08-03 05:11:28 51°13.673 2°55.86 22.5228 0.109232 0.555947 -3.020363
2011-08-03 05:11:33 51°13.677 2°55.85 22.5151 0.10913 0.555412 -3.020363
2011-08-03 05:11:37 51°13.681 2°55.841 22.5128 0.10913 0.555412 -3.020363
2011-08-03 05:11:42 51°13.685 2°55.83 22.5124 0.10913 0.555412 -3.020363
2011-08-03 05:11:48 51°13.691 2°55.817 22.5187 0.10913 0.555412 -3.020363
2011-08-03 05:11:53 51°13.696 2°55.806 22.5176 0.10913 0.555412 -3.020363
2011-08-03 05:11:58 51°13.701 2°55.795 22.5184 0.10913 0.555412 -3.020363
2011-08-03 05:12:02 51°13.705 2°55.786 22.5188 0.10913 0.555412 -3.020363
2011-08-03 05:12:08 51°13.712 2°55.774 22.5088 0.10913 0.555412 -3.020363
2011-08-03 05:12:13 51°13.717 2°55.764 22.5098 0.10913 0.555421 -3.020363
2011-08-03 05:12:18 51°13.723 2°55.753 22.5167 0.109027 0.554877 -3.020363
2011-08-03 05:12:22 51°13.728 2°55.745 22.5188 0.109027 0.554877 -3.020363
2011-08-03 05:12:27 51°13.734 2°55.736 22.5205 0.109027 0.554877 -3.020363
2011-08-03 05:12:33 51°13.741 2°55.725 22.5197 0.109027 0.554877 -3.020363
2011-08-03 05:12:37 51°13.746 2°55.717 22.5172 0.109027 0.554886 -3.020363
2011-08-03 05:12:42 51°13.753 2°55.708 22.5159 0.109027 0.554886 -3.020363
2011-08-03 05:12:47 51°13.759 2°55.7 22.51 0.109027 0.554886 -3.020363
2011-08-03 05:12:52 51°13.766 2°55.692 22.5089 0.109027 0.554886 -3.020363
2011-08-03 05:12:58 51°13.774 2°55.682 22.5146 0.109027 0.554886 -3.020363
2011-08-03 05:13:03 51°13.782 2°55.674 22.5227 0.109027 0.554886 -3.020363
2011-08-03 05:13:07 51°13.788 2°55.669 22.5212 0.109027 0.554886 -3.020363
2011-08-03 05:13:13 51°13.797 2°55.661 22.5142 0.108924 0.554341 -3.020363
2011-08-03 05:13:17 51°13.802 2°55.656 22.5055 0.108924 0.554341 -3.020363
2011-08-03 05:13:23 51°13.811 2°55.649 22.5221 0.108924 0.554341 -3.020363
2011-08-03 05:13:27 51°13.817 2°55.645 22.524 0.108924 0.554341 -3.020363
2011-08-03 05:13:32 51°13.825 2°55.641 22.5127 0.108924 0.55435 -3.020363
2011-08-03 05:13:37 51°13.832 2°55.637 22.5201 0.108924 0.55435 -3.020363
2011-08-03 05:13:43 51°13.841 2°55.632 22.5204 0.108924 0.554359 -3.020363
2011-08-03 05:13:48 51°13.848 2°55.629 22.519 0.108924 0.554359 -3.020363
2011-08-03 05:13:52 51°13.854 2°55.627 22.5279 0.108924 0.554359 -3.020363
2011-08-03 05:13:57 51°13.861 2°55.625 22.528 0.108924 0.554359 -3.020363
2011-08-03 05:14:03 51°13.869 2°55.623 22.5212 0.108924 0.554359 -3.020363
2011-08-03 05:14:08 51°13.876 2°55.621 22.5246 0.108924 0.554359 -3.020363
2011-08-03 05:14:13 51°13.883 2°55.62 22.5223 0.108821 0.553824 -3.020363
2011-08-03 05:14:18 51°13.89 2°55.62 22.5251 0.108924 0.554368 -3.020363
2011-08-03 05:14:23 51°13.896 2°55.62 22.5224 0.108924 0.554368 -3.020363
2011-08-03 05:14:28 51°13.902 2°55.621 22.5234 0.108924 0.554368 -3.020363
2011-08-03 05:14:32 51°13.907 2°55.622 22.5245 0.108924 0.554368 -3.020363
2011-08-03 05:14:37 51°13.913 2°55.623 22.524 0.108924 0.554377 -3.020363
2011-08-03 05:14:42 51°13.919 2°55.625 22.526 0.108924 0.554377 -3.020363
2011-08-03 05:14:48 51°13.926 2°55.628 22.5284 0.108924 0.554377 -3.020363
2011-08-03 05:14:53 51°13.932 2°55.63 22.5265 0.108924 0.554377 -3.020363
2011-08-03 05:14:57 51°13.936 2°55.632 22.522 0.108924 0.554377 -3.020363
2011-08-03 05:15:03 51°13.942 2°55.635 22.526 0.108924 0.554377 -3.020363
2011-08-03 05:15:08 51°13.947 2°55.638 22.5322 0.108924 0.554386 -3.020363
2011-08-03 05:15:12 51°13.95 2°55.639 22.5374 0.108821 0.553841 -3.020363
2011-08-03 05:15:17 51°13.954 2°55.642 22.5388 0.108718 0.553297 -3.020363
2011-08-03 05:15:22 51°13.958 2°55.644 22.5404 0.108718 0.553297 -3.020363
2011-08-03 05:15:27 51°13.961 2°55.646 22.54 0.108615 0.552753 -3.020363
2011-08-03 05:15:32 51°13.963 2°55.647 22.5407 0.108615 0.552753 -3.020363
2011-08-03 05:15:37 51°13.965 2°55.649 22.5396 0.108513 0.552209 -3.020363
2011-08-03 05:15:42 51°13.966 2°55.649 22.5464 0.108513 0.552209 -3.020363
2011-08-03 05:15:47 51°13.967 2°55.65 22.5426 0.108513 0.552209 -3.020363
2011-08-03 05:15:52 51°13.967 2°55.65 22.5437 0.108513 0.552209 -3.020363
2011-08-03 05:15:58 51°13.968 2°55.649 22.5432 0.108513 0.552218 -3.020363
2011-08-03 05:16:02 51°13.968 2°55.648 22.5432 0.108513 0.552209 -3.020363
2011-08-03 05:16:07 51°13.968 2°55.646 22.5373 0.108513 0.552209 -3.020363
2011-08-03 05:16:12 51°13.968 2°55.643 22.5298 0.108513 0.552218 -3.020363
2011-08-03 05:16:17 51°13.968 2°55.641 22.5182 0.108615 0.552771 -3.020363
2011-08-03 05:16:22 51°13.968 2°55.637 22.4752 0.108615 0.552771 -3.020363
2011-08-03 05:16:27 51°13.968 2°55.633 22.4488 0.108513 0.552227 -3.020363
2011-08-03 05:16:33 51°13.968 2°55.628 22.4345 0.108615 0.552771 -3.020363
2011-08-03 05:16:38 51°13.969 2°55.623 22.4603 0.108615 0.552771 -3.020363
2011-08-03 05:16:43 51°13.97 2°55.617 22.4022 0.108615 0.55278 -3.020363
2011-08-03 05:16:47 51°13.971 2°55.613 22.4341 0.108615 0.55278 -3.020363
2011-08-03 05:16:52 51°13.973 2°55.607 22.4299 0.108615 0.55278 -3.020363
2011-08-03 05:16:57 51°13.976 2°55.601 22.4618 0.108615 0.55278 -3.020363
2011-08-03 05:17:01 51°13.978 2°55.596 22.4772 0.108718 0.553333 -3.020363
2011-08-03 05:17:06 51°13.981 2°55.59 22.5067 0.108718 0.553333 -3.020363
2011-08-03 05:17:10 51°13.984 2°55.585 22.5193 0.108718 0.553341 -3.020363
2011-08-03 05:17:15 51°13.988 2°55.579 22.5213 0.108718 0.55335 -3.020363
2011-08-03 05:17:20 51°13.993 2°55.572 22.5213 0.108718 0.55335 -3.020363
2011-08-03 05:17:25 51°13.998 2°55.565 22.5216 0.108718 0.55335 -3.020363
2011-08-03 05:17:30 51°14.003 2°55.558 22.5211 0.108718 0.553359 -3.020363
2011-08-03 05:17:36 51°14.01 2°55.549 22.5208 0.108718 0.553359 -3.020363
2011-08-03 05:17:41 51°14.016 2°55.541 22.5204 0.108718 0.553359 -3.020363
2011-08-03 05:17:46 51°14.022 2°55.533 22.5192 0.108718 0.55335 -3.020363
2011-08-03 05:17:51 51°14.029 2°55.525 22.5155 0.108718 0.55335 -3.020363
2011-08-03 05:17:55 51°14.035 2°55.518 22.5114 0.108718 0.553359 -3.020363
2011-08-03 05:18:00 51°14.043 2°55.51 22.5101 0.108718 0.553359 -3.020363
2011-08-03 05:18:06 51°14.052 2°55.5 22.5131 0.108718 0.553359 -3.020363
2011-08-03 05:18:11 51°14.06 2°55.491 22.5099 0.108821 0.553894 -3.020363
2011-08-03 05:18:15 51°14.066 2°55.485 22.5058 0.108821 0.553903 -3.020363
2011-08-03 05:18:20 51°14.075 2°55.476 22.5059 0.108821 0.553903 -3.020363
2011-08-03 05:18:25 51°14.083 2°55.468 22.509 0.108821 0.553903 -3.020363
2011-08-03 05:18:30 51°14.092 2°55.459 22.5125 0.108924 0.554447 -3.020363
2011-08-03 05:18:35 51°14.101 2°55.451 22.5171 0.108821 0.553903 -3.020363
2011-08-03 05:18:39 51°14.108 2°55.444 22.5156 0.108821 0.553912 -3.020363
2011-08-03 05:18:44 51°14.117 2°55.435 22.5227 0.108821 0.553903 -3.020363
2011-08-03 05:18:49 51°14.126 2°55.427 22.531 0.108821 0.553903 -3.020363
2011-08-03 05:18:54 51°14.136 2°55.418 22.5299 0.108718 0.553368 -3.020363
2011-08-03 05:18:59 51°14.146 2°55.409 22.5276 0.108718 0.553368 -3.020363
2011-08-03 05:19:03 51°14.154 2°55.402 22.5251 0.108718 0.553359 -3.020363
2011-08-03 05:19:09 51°14.167 2°55.391 22.5211 0.108718 0.553368 -3.020363
2011-08-03 05:19:14 51°14.178 2°55.381 22.5163 0.108718 0.553368 -3.020363
2011-08-03 05:19:19 51°14.189 2°55.372 22.519 0.108718 0.553368 -3.020363
2011-08-03 05:19:23 51°14.197 2°55.364 22.5209 0.108821 0.553912 -3.020363
2011-08-03 05:19:29 51°14.211 2°55.352 22.5246 0.108718 0.553368 -3.020363
2011-08-03 05:19:34 51°14.222 2°55.342 22.5258 0.108821 0.553912 -3.020363
2011-08-03 05:19:39 51°14.233 2°55.332 22.5279 0.108821 0.553921 -3.020363
2011-08-03 05:19:43 51°14.242 2°55.323 22.528 0.108718 0.553377 -3.020363
2011-08-03 05:19:49 51°14.256 2°55.311 22.5311 0.108718 0.553377 -3.020363
2011-08-03 05:19:54 51°14.268 2°55.3 22.5157 0.108718 0.553377 -3.020363
2011-08-03 05:19:59 51°14.279 2°55.289 22.4925 0.108718 0.553377 -3.020363
2011-08-03 05:20:03 51°14.289 2°55.28 22.4978 0.108718 0.553368 -3.020363
2011-08-03 05:20:09 51°14.303 2°55.267 22.5176 0.108821 0.553912 -3.020363
2011-08-03 05:20:14 51°14.315 2°55.255 22.5199 0.108718 0.553385 -3.020363
2011-08-03 05:20:19 51°14.327 2°55.244 22.5184 0.108718 0.553385 -3.020363
2011-08-03 05:20:23 51°14.337 2°55.235 22.5258 0.108821 0.55393 -3.020363
2011-08-03 05:20:29 51°14.352 2°55.221 22.5446 0.108718 0.553377 -3.020363
2011-08-03 05:20:34 51°14.365 2°55.21 22.5388 0.108821 0.55393 -3.020363
2011-08-03 05:20:39 51°14.377 2°55.199 22.5327 0.108821 0.553921 -3.020363
2011-08-03 05:20:43 51°14.388 2°55.19 22.5523 0.108821 0.55393 -3.020363
2011-08-03 05:20:49 51°14.403 2°55.176 22.5437 0.108821 0.55393 -3.020363
2011-08-03 05:20:54 51°14.415 2°55.163 22.5512 0.108718 0.553385 -3.020363
2011-08-03 05:20:59 51°14.428 2°55.151 22.5357 0.108718 0.553385 -3.020363
2011-08-03 05:21:03 51°14.438 2°55.14 22.5377 0.108615 0.552841 -3.020363
2011-08-03 05:21:09 51°14.454 2°55.124 22.5356 0.108615 0.552841 -3.020363
2011-08-03 05:21:14 51°14.467 2°55.11 22.5381 0.108615 0.552841 -3.020363
2011-08-03 05:21:19 51°14.48 2°55.097 22.5409 0.108615 0.552841 -3.020363
2011-08-03 05:21:23 51°14.49 2°55.085 22.5486 0.108615 0.552841 -3.020363
2011-08-03 05:21:29 51°14.507 2°55.068 22.5506 0.108513 0.552297 -3.020363
2011-08-03 05:21:34 51°14.52 2°55.052 22.5194 0.108513 0.552297 -3.020363
2011-08-03 05:21:39 51°14.534 2°55.037 22.5249 0.108513 0.552297 -3.020363
2011-08-03 05:21:43 51°14.544 2°55.024 22.5147 0.108513 0.552297 -3.020363
2011-08-03 05:21:47 51°14.555 2°55.011 22.5022 0.108513 0.552297 -3.020363
2011-08-03 05:21:54 51°14.575 2°54.989 22.4255 0.108513 0.552297 -3.020363
2011-08-03 05:21:59 51°14.589 2°54.973 22.5181 0.108513 0.552288 -3.020363
2011-08-03 05:22:03 51°14.601 2°54.96 22.5303 0.108615 0.552833 -3.020363
2011-08-03 05:22:08 51°14.616 2°54.944 22.5072 0.108718 0.553385 -3.020363
2011-08-03 05:22:14 51°14.633 2°54.925 22.5255 0.108615 0.552824 -3.020363
2011-08-03 05:22:19 51°14.648 2°54.91 22.528 0.108615 0.552824 -3.020363
2011-08-03 05:22:23 51°14.66 2°54.897 22.5366 0.108821 0.553921 -3.020363
2011-08-03 05:22:29 51°14.678 2°54.878 22.5447 0.108718 0.553377 -3.020363
2011-08-03 05:22:34 51°14.694 2°54.862 22.5414 0.108718 0.553385 -3.020363
2011-08-03 05:22:39 51°14.708 2°54.846 22.5338 0.108615 0.552841 -3.020363
2011-08-03 05:22:43 51°14.72 2°54.833 22.5391 0.108615 0.552841 -3.020363
2011-08-03 05:22:49 51°14.738 2°54.813 22.5739 0.108615 0.552841 -3.020363
2011-08-03 05:22:54 51°14.752 2°54.795 22.5276 0.108615 0.552859 -3.020363
2011-08-03 05:22:59 51°14.767 2°54.778 22.5382 0.108615 0.55285 -3.020363
2011-08-03 05:23:03 51°14.778 2°54.763 22.5298 0.108513 0.552306 -3.020363
2011-08-03 05:23:09 51°14.795 2°54.742 22.4933 0.108615 0.55285 -3.020363
2011-08-03 05:23:14 51°14.809 2°54.724 22.5355 0.108513 0.552306 -3.020363
2011-08-03 05:23:19 51°14.823 2°54.707 22.5251 0.108513 0.552306 -3.020363
2011-08-03 05:23:23 51°14.835 2°54.692 22.5569 0.108615 0.55285 -3.020363
2011-08-03 05:23:29 51°14.852 2°54.671 22.5044 0.108615 0.552859 -3.020363
2011-08-03 05:23:34 51°14.866 2°54.654 22.5412 0.108615 0.55285 -3.020363
2011-08-03 05:23:39 51°14.88 2°54.637 22.5139 0.108718 0.553403 -3.020363
2011-08-03 05:23:43 51°14.892 2°54.623 22.5233 0.108718 0.553403 -3.020363
2011-08-03 05:23:49 51°14.909 2°54.602 22.4704 0.108718 0.553403 -3.020363
2011-08-03 05:23:54 51°14.924 2°54.585 22.4683 0.108718 0.553394 -3.020363
2011-08-03 05:23:59 51°14.938 2°54.57 22.4896 0.108821 0.553938 -3.020363
2011-08-03 05:24:03 51°14.95 2°54.557 22.5474 0.108821 0.553938 -3.020363
2011-08-03 05:24:09 51°14.969 2°54.54 22.5465 0.108924 0.554492 -3.020363
2011-08-03 05:24:14 51°14.984 2°54.525 22.5555 0.108821 0.553956 -3.020363
2011-08-03 05:24:19 51°14.999 2°54.511 22.558 0.108821 0.553956 -3.020363
2011-08-03 05:24:23 51°15.011 2°54.498 22.5326 0.108718 0.553421 -3.020363
2011-08-03 05:24:28 51°15.026 2°54.483 22.5472 0.108615 0.552868 -3.020363
2011-08-03 05:24:33 51°15.041 2°54.467 22.5343 0.108615 0.552868 -3.020363
2011-08-03 05:24:39 51°15.059 2°54.448 22.5495 0.108615 0.552868 -3.020363
2011-08-03 05:24:43 51°15.071 2°54.436 22.5486 0.108615 0.552868 -3.020363
2011-08-03 05:24:49 51°15.089 2°54.417 22.5596 0.108615 0.552868 -3.020363
2011-08-03 05:24:54 51°15.103 2°54.401 22.5558 0.108615 0.552877 -3.020363
2011-08-03 05:24:59 51°15.117 2°54.384 22.5527 0.108513 0.552332 -3.020363
2011-08-03 05:25:03 51°15.129 2°54.37 22.5362 0.108513 0.552332 -3.020363
2011-08-03 05:25:09 51°15.146 2°54.35 22.5357 0.108513 0.552324 -3.020363
2011-08-03 05:25:14 51°15.16 2°54.333 22.5446 0.108513 0.552332 -3.020363
2011-08-03 05:25:19 51°15.174 2°54.317 22.5431 0.108513 0.552332 -3.020363
2011-08-03 05:25:23 51°15.186 2°54.303 22.5617 0.108615 0.552877 -3.020363
2011-08-03 05:25:29 51°15.203 2°54.283 22.5535 0.108513 0.552332 -3.020363
2011-08-03 05:25:34 51°15.217 2°54.266 22.5543 0.108615 0.552877 -3.020363
2011-08-03 05:25:39 51°15.231 2°54.249 22.5573 0.108513 0.552341 -3.020363
2011-08-03 05:25:43 51°15.243 2°54.236 22.5467 0.108513 0.552332 -3.020363
2011-08-03 05:25:49 51°15.259 2°54.215 22.5508 0.108513 0.552332 -3.020363
2011-08-03 05:25:54 51°15.273 2°54.198 22.5322 0.108513 0.552332 -3.020363
2011-08-03 05:25:59 51°15.288 2°54.181 22.5597 0.108615 0.552885 -3.020363
2011-08-03 05:26:03 51°15.299 2°54.167 22.5397 0.108615 0.552885 -3.020363
2011-08-03 05:26:07 51°15.31 2°54.154 22.5612 0.108615 0.552894 -3.020363
2011-08-03 05:26:14 51°15.33 2°54.13 22.5565 0.108513 0.55235 -3.020363
2011-08-03 05:26:19 51°15.344 2°54.113 22.5415 0.108513 0.55235 -3.020363
2011-08-03 05:26:23 51°15.355 2°54.1 22.5115 0.108615 0.552885 -3.020363
2011-08-03 05:26:28 51°15.37 2°54.083 22.5326 0.108615 0.552885 -3.020363
2011-08-03 05:26:34 51°15.387 2°54.063 22.5672 0.108821 0.553974 -3.020363
2011-08-03 05:26:39 51°15.401 2°54.048 22.5496 0.108821 0.553974 -3.020363
2011-08-03 05:26:43 51°15.413 2°54.035 22.551 0.108615 0.552903 -3.020363
2011-08-03 05:26:49 51°15.43 2°54.016 22.5567 0.108615 0.552903 -3.020363
2011-08-03 05:26:54 51°15.444 2°53.999 22.5775 0.108718 0.553447 -3.020363
2011-08-03 05:26:59 51°15.459 2°53.983 22.5616 0.108615 0.552894 -3.020363
2011-08-03 05:27:03 51°15.47 2°53.969 22.5776 0.108615 0.552903 -3.020363
2011-08-03 05:27:09 51°15.486 2°53.948 22.5421 0.108615 0.552903 -3.020363
2011-08-03 05:27:14 51°15.499 2°53.93 22.565 0.10841 0.551815 -3.020363
2011-08-03 05:27:19 51°15.512 2°53.911 22.5616 0.10841 0.551815 -3.020363
2011-08-03 05:27:23 51°15.523 2°53.896 22.5556 0.10841 0.551815 -3.020363
2011-08-03 05:27:29 51°15.538 2°53.873 22.5627 0.108513 0.552359 -3.020363
2011-08-03 05:27:34 51°15.551 2°53.854 22.5498 0.108513 0.552359 -3.020363
2011-08-03 05:27:39 51°15.563 2°53.835 22.5272 0.108513 0.552359 -3.020363
2011-08-03 05:27:43 51°15.573 2°53.819 22.5547 0.108513 0.552359 -3.020363
2011-08-03 05:27:49 51°15.588 2°53.796 22.5235 0.108513 0.552359 -3.020363
2011-08-03 05:27:54 51°15.601 2°53.777 22.5424 0.108615 0.552903 -3.020363
2011-08-03 05:27:59 51°15.614 2°53.758 22.556 0.108718 0.553447 -3.020363
2011-08-03 05:28:03 51°15.624 2°53.743 22.5566 0.108615 0.552903 -3.020363
2011-08-03 05:28:09 51°15.64 2°53.72 22.5501 0.108615 0.552912 -3.020363
2011-08-03 05:28:14 51°15.653 2°53.702 22.5544 0.108718 0.553447 -3.020363
2011-08-03 05:28:19 51°15.666 2°53.683 22.5789 0.108718 0.553447 -3.020363
2011-08-03 05:28:23 51°15.676 2°53.668 22.5456 0.108615 0.552912 -3.020363
2011-08-03 05:28:29 51°15.692 2°53.646 22.4958 0.108513 0.552368 -3.020363
2011-08-03 05:28:34 51°15.705 2°53.626 22.5105 0.108718 0.553456 -3.020363
2011-08-03 05:28:39 51°15.718 2°53.609 22.5455 0.108718 0.553456 -3.020363
2011-08-03 05:28:43 51°15.729 2°53.595 22.549 0.108718 0.553456 -3.020363
2011-08-03 05:28:49 51°15.746 2°53.574 22.5288 0.108718 0.553456 -3.020363
2011-08-03 05:28:54 51°15.76 2°53.557 22.5156 0.108718 0.553465 -3.020363
2011-08-03 05:28:59 51°15.774 2°53.541 22.5244 0.108821 0.554 -3.020363
2011-08-03 05:29:03 51°15.786 2°53.529 22.5436 0.108821 0.554 -3.020363
2011-08-03 05:29:09 51°15.804 2°53.512 22.5623 0.108924 0.554545 -3.020363
2011-08-03 05:29:14 51°15.819 2°53.498 22.5598 0.108821 0.554009 -3.020363
2011-08-03 05:29:19 51°15.834 2°53.483 22.564 0.108821 0.554009 -3.020363
2011-08-03 05:29:23 51°15.847 2°53.473 22.5561 0.108821 0.554 -3.020363
2011-08-03 05:29:29 51°15.865 2°53.457 22.5595 0.108821 0.554009 -3.020363
2011-08-03 05:29:34 51°15.881 2°53.444 22.57 0.108924 0.554553 -3.020363
2011-08-03 05:29:39 51°15.897 2°53.431 22.5706 0.108821 0.554 -3.020363
2011-08-03 05:29:43 51°15.909 2°53.42 22.5726 0.108821 0.554018 -3.020363
2011-08-03 05:29:49 51°15.927 2°53.404 22.554 0.108821 0.554018 -3.020363
2011-08-03 05:29:54 51°15.943 2°53.39 22.5713 0.108718 0.553474 -3.020363
2011-08-03 05:29:59 51°15.958 2°53.376 22.5764 0.108718 0.553465 -3.020363
2011-08-03 05:30:04 51°15.974 2°53.363 22.5733 0.108718 0.553465 -3.020363
2011-08-03 05:30:09 51°15.989 2°53.349 22.5772 0.108615 0.552921 -3.020363
2011-08-03 05:30:14 51°16.004 2°53.335 22.5747 0.108718 0.553474 -3.020363
2011-08-03 05:30:19 51°16.019 2°53.32 22.5733 0.108718 0.553474 -3.020363
2011-08-03 05:30:23 51°16.031 2°53.308 22.5694 0.108615 0.552929 -3.020363
2011-08-03 05:30:29 51°16.049 2°53.289 22.5461 0.108718 0.553474 -3.020363
2011-08-03 05:30:34 51°16.064 2°53.274 22.56 0.108615 0.552929 -3.020363
2011-08-03 05:30:39 51°16.078 2°53.258 22.5167 0.108718 0.553474 -3.020363
2011-08-03 05:30:43 51°16.09 2°53.246 22.5085 0.108615 0.552921 -3.020363
2011-08-03 05:30:49 51°16.108 2°53.229 22.5744 0.108615 0.552921 -3.020363
2011-08-03 05:30:54 51°16.124 2°53.215 22.5793 0.108924 0.554553 -3.020363
2011-08-03 05:30:59 51°16.139 2°53.202 22.5621 0.108821 0.554018 -3.020363
2011-08-03 05:31:03 51°16.152 2°53.19 22.5905 0.108718 0.553474 -3.020363
2011-08-03 05:31:09 51°16.171 2°53.174 22.5719 0.108718 0.553474 -3.020363
2011-08-03 05:31:14 51°16.186 2°53.16 22.5942 0.108718 0.553474 -3.020363
2011-08-03 05:31:19 51°16.202 2°53.147 22.5694 0.108718 0.553474 -3.020363
2011-08-03 05:31:23 51°16.214 2°53.136 22.5888 0.108718 0.553474 -3.020363
2011-08-03 05:31:29 51°16.232 2°53.119 22.5818 0.108615 0.552938 -3.020363
2011-08-03 05:31:33 51°16.245 2°53.107 22.5823 0.108615 0.552929 -3.020363
2011-08-03 05:31:39 51°16.263 2°53.09 22.5666 0.108821 0.554027 -3.020363
2011-08-03 05:31:43 51°16.275 2°53.078 22.5677 0.108615 0.552938 -3.020363
2011-08-03 05:31:49 51°16.293 2°53.061 22.5761 0.108615 0.552938 -3.020363
2011-08-03 05:31:54 51°16.308 2°53.046 22.5699 0.108718 0.553482 -3.020363
2011-08-03 05:31:59 51°16.323 2°53.031 22.5692 0.108615 0.552938 -3.020363
2011-08-03 05:32:03 51°16.335 2°53.02 22.5844 0.108718 0.553491 -3.020363
2011-08-03 05:32:09 51°16.353 2°53.002 22.5731 0.108718 0.553491 -3.020363
2011-08-03 05:32:14 51°16.368 2°52.988 22.5869 0.108718 0.553491 -3.020363
2011-08-03 05:32:19 51°16.383 2°52.973 22.5773 0.108718 0.553491 -3.020363
2011-08-03 05:32:23 51°16.395 2°52.962 22.5586 0.108718 0.553491 -3.020363
2011-08-03 05:32:29 51°16.413 2°52.944 22.5573 0.108615 0.552947 -3.020363
2011-08-03 05:32:34 51°16.428 2°52.929 22.576 0.108718 0.553491 -3.020363
2011-08-03 05:32:39 51°16.443 2°52.914 22.5657 0.108718 0.553491 -3.020363
2011-08-03 05:32:43 51°16.455 2°52.903 22.5209 0.108821 0.554036 -3.020363
2011-08-03 05:32:49 51°16.473 2°52.886 22.5319 0.108821 0.554036 -3.020363
2011-08-03 05:32:54 51°16.489 2°52.873 22.545 0.108821 0.554027 -3.020363
2011-08-03 05:32:59 51°16.505 2°52.86 22.5847 0.108924 0.554571 -3.020363
2011-08-03 05:33:03 51°16.518 2°52.851 22.5647 0.108924 0.55458 -3.020363
2011-08-03 05:33:09 51°16.538 2°52.837 22.5701 0.108821 0.554044 -3.020363
2011-08-03 05:33:14 51°16.554 2°52.826 22.5674 0.108924 0.554589 -3.020363
2011-08-03 05:33:19 51°16.571 2°52.815 22.5818 0.108924 0.554589 -3.020363
2011-08-03 05:33:23 51°16.584 2°52.806 22.5896 0.108821 0.554044 -3.020363
2011-08-03 05:33:29 51°16.604 2°52.793 22.5863 0.108924 0.554589 -3.020363
2011-08-03 05:33:34 51°16.62 2°52.783 22.5902 0.108924 0.554589 -3.020363
2011-08-03 05:33:39 51°16.637 2°52.772 22.5884 0.108821 0.554044 -3.020363
2011-08-03 05:33:43 51°16.65 2°52.763 22.595 0.108821 0.554044 -3.020363
2011-08-03 05:33:49 51°16.67 2°52.75 22.5769 0.108821 0.554044 -3.020363
2011-08-03 05:33:54 51°16.687 2°52.738 22.5813 0.108821 0.554044 -3.020363
2011-08-03 05:33:59 51°16.703 2°52.727 22.5783 0.108718 0.553509 -3.020363
2011-08-03 05:34:03 51°16.716 2°52.718 22.5723 0.108821 0.554044 -3.020363
2011-08-03 05:34:09 51°16.736 2°52.705 22.5814 0.108718 0.5535 -3.020363
2011-08-03 05:34:14 51°16.753 2°52.694 22.6087 0.108821 0.554044 -3.020363
2011-08-03 05:34:19 51°16.769 2°52.683 22.5814 0.108821 0.554044 -3.020363
2011-08-03 05:34:24 51°16.786 2°52.672 22.5952 0.108718 0.553509 -3.020363
2011-08-03 05:34:29 51°16.803 2°52.66 22.5656 0.108718 0.553509 -3.020363
2011-08-03 05:34:34 51°16.819 2°52.649 22.5901 0.108821 0.554044 -3.020363
2011-08-03 05:34:39 51°16.835 2°52.638 22.5844 0.108821 0.554044 -3.020363
2011-08-03 05:34:43 51°16.849 2°52.629 22.5945 0.108821 0.554053 -3.020363
2011-08-03 05:34:49 51°16.869 2°52.615 22.6033 0.108821 0.554053 -3.020363
2011-08-03 05:34:54 51°16.885 2°52.604 22.6132 0.108821 0.554053 -3.020363
2011-08-03 05:34:59 51°16.901 2°52.593 22.6039 0.108821 0.554053 -3.020363
2011-08-03 05:35:03 51°16.914 2°52.583 22.6177 0.108718 0.553518 -3.020363
2011-08-03 05:35:07 51°16.927 2°52.573 22.6047 0.108615 0.552973 -3.020363
2011-08-03 05:35:14 51°16.95 2°52.555 22.6039 0.108615 0.552973 -3.020363
2011-08-03 05:35:19 51°16.965 2°52.541 22.5968 0.108615 0.552973 -3.020363
2011-08-03 05:35:23 51°16.978 2°52.53 22.6071 0.108513 0.55242 -3.020363
2011-08-03 05:35:28 51°16.994 2°52.516 22.5795 0.108615 0.552973 -3.020363
2011-08-03 05:35:34 51°17.012 2°52.499 22.5916 0.108615 0.552973 -3.020363
2011-08-03 05:35:39 51°17.028 2°52.485 22.5873 0.108718 0.553518 -3.020363
2011-08-03 05:35:43 51°17.04 2°52.474 22.5874 0.108718 0.553518 -3.020363
2011-08-03 05:35:49 51°17.059 2°52.458 22.5967 0.108718 0.553518 -3.020363
2011-08-03 05:35:54 51°17.075 2°52.444 22.6024 0.108718 0.553526 -3.020363
2011-08-03 05:35:59 51°17.091 2°52.43 22.5936 0.108718 0.553518 -3.020363
2011-08-03 05:36:03 51°17.103 2°52.419 22.5937 0.108821 0.554071 -3.020363
2011-08-03 05:36:09 51°17.122 2°52.403 22.6 0.108718 0.553526 -3.020363
2011-08-03 05:36:14 51°17.138 2°52.389 22.6118 0.108718 0.553526 -3.020363
2011-08-03 05:36:19 51°17.154 2°52.375 22.5798 0.108718 0.553526 -3.020363
2011-08-03 05:36:23 51°17.166 2°52.364 22.5332 0.108718 0.553526 -3.020363
2011-08-03 05:36:29 51°17.185 2°52.347 22.5244 0.108615 0.552982 -3.020363
2011-08-03 05:36:34 51°17.201 2°52.335 22.5364 0.108821 0.554062 -3.020363
2011-08-03 05:36:39 51°17.218 2°52.324 22.5618 0.108924 0.554606 -3.020363
2011-08-03 05:36:43 51°17.231 2°52.316 22.5855 0.109027 0.55516 -3.020363
2011-08-03 05:36:49 51°17.252 2°52.306 22.5656 0.109027 0.55516 -3.020363
2011-08-03 05:36:54 51°17.269 2°52.299 22.5843 0.109027 0.55516 -3.020363
2011-08-03 05:36:59 51°17.287 2°52.293 22.598 0.109027 0.55516 -3.020363
2011-08-03 05:37:03 51°17.301 2°52.289 22.6078 0.109027 0.555168 -3.020363
2011-08-03 05:37:09 51°17.322 2°52.284 22.5999 0.109027 0.555177 -3.020363
2011-08-03 05:37:14 51°17.34 2°52.279 22.6082 0.108924 0.554624 -3.020363
2011-08-03 05:37:19 51°17.357 2°52.275 22.6165 0.108924 0.554624 -3.020363
2011-08-03 05:37:23 51°17.372 2°52.272 22.6139 0.108924 0.554633 -3.020363
2011-08-03 05:37:29 51°17.393 2°52.267 22.6009 0.108821 0.554097 -3.020363
2011-08-03 05:37:34 51°17.411 2°52.263 22.606 0.108821 0.554088 -3.020363
2011-08-03 05:37:39 51°17.429 2°52.259 22.5854 0.108821 0.554088 -3.020363
2011-08-03 05:37:43 51°17.443 2°52.255 22.6093 0.108821 0.554088 -3.020363
2011-08-03 05:37:49 51°17.464 2°52.251 22.6185 0.108821 0.554088 -3.020363
2011-08-03 05:37:53 51°17.478 2°52.247 22.6157 0.108821 0.554097 -3.020363
2011-08-03 05:37:59 51°17.5 2°52.241 22.6091 0.108718 0.553562 -3.020363
2011-08-03 05:38:03 51°17.514 2°52.237 22.6047 0.108718 0.553553 -3.020363
2011-08-03 05:38:08 51°17.532 2°52.232 22.5948 0.108718 0.553553 -3.020363
2011-08-03 05:38:14 51°17.553 2°52.225 22.607 0.108615 0.553009 -3.020363
2011-08-03 05:38:19 51°17.57 2°52.219 22.6166 0.108615 0.553009 -3.020363
2011-08-03 05:38:23 51°17.584 2°52.214 22.6253 0.108718 0.553553 -3.020363
2011-08-03 05:38:29 51°17.605 2°52.206 22.6067 0.108615 0.553009 -3.020363
2011-08-03 05:38:34 51°17.623 2°52.199 22.5991 0.108718 0.553553 -3.020363
2011-08-03 05:38:39 51°17.64 2°52.192 22.6203 0.108718 0.553562 -3.020363
2011-08-03 05:38:43 51°17.654 2°52.186 22.6035 0.108718 0.553562 -3.020363
2011-08-03 05:38:49 51°17.675 2°52.178 22.5959 0.108718 0.553562 -3.020363
2011-08-03 05:38:54 51°17.692 2°52.17 22.5875 0.108718 0.553562 -3.020363
2011-08-03 05:38:59 51°17.709 2°52.163 22.5844 0.108821 0.554097 -3.020363
2011-08-03 05:39:03 51°17.724 2°52.157 22.6172 0.108821 0.554106 -3.020363
2011-08-03 05:39:09 51°17.744 2°52.149 22.5836 0.108821 0.554106 -3.020363
2011-08-03 05:39:14 51°17.762 2°52.143 22.5854 0.108821 0.554106 -3.020363
2011-08-03 05:39:19 51°17.779 2°52.136 22.5798 0.108821 0.554106 -3.020363
2011-08-03 05:39:23 51°17.793 2°52.132 22.6285 0.108821 0.554106 -3.020363
2011-08-03 05:39:29 51°17.815 2°52.126 22.6344 0.108924 0.554651 -3.020363
2011-08-03 05:39:34 51°17.832 2°52.12 22.612 0.108924 0.554659 -3.020363
2011-08-03 05:39:39 51°17.85 2°52.113 22.6325 0.108718 0.553571 -3.020363
2011-08-03 05:39:43 51°17.864 2°52.109 22.6195 0.108821 0.554115 -3.020363
2011-08-03 05:39:48 51°17.882 2°52.102 22.6376 0.108821 0.554115 -3.020363
2011-08-03 05:39:54 51°17.902 2°52.093 22.6138 0.108615 0.553026 -3.020363
2011-08-03 05:39:59 51°17.92 2°52.085 22.6255 0.108718 0.553571 -3.020363
2011-08-03 05:40:03 51°17.933 2°52.078 22.6351 0.108615 0.553026 -3.020363
2011-08-03 05:40:09 51°17.954 2°52.068 22.6067 0.108615 0.553026 -3.020363
2011-08-03 05:40:14 51°17.971 2°52.058 22.6219 0.108615 0.553026 -3.020363
2011-08-03 05:40:19 51°17.988 2°52.049 22.6233 0.108615 0.553026 -3.020363
2011-08-03 05:40:23 51°18.001 2°52.041 22.5975 0.108615 0.553035 -3.020363
2011-08-03 05:40:29 51°18.021 2°52.029 22.608 0.108615 0.553017 -3.020363
2011-08-03 05:40:34 51°18.038 2°52.019 22.6153 0.108718 0.553562 -3.020363
2011-08-03 05:40:39 51°18.055 2°52.009 22.6233 0.108718 0.553571 -3.020363
2011-08-03 05:40:43 51°18.069 2°52.002 22.594 0.108718 0.553571 -3.020363
2011-08-03 05:40:49 51°18.089 2°51.991 22.6214 0.108718 0.553571 -3.020363
2011-08-03 05:40:54 51°18.106 2°51.982 22.5893 0.108821 0.554115 -3.020363
2011-08-03 05:40:59 51°18.123 2°51.974 22.6101 0.108821 0.554106 -3.020363
2011-08-03 05:41:03 51°18.137 2°51.967 22.6351 0.108821 0.554115 -3.020363
2011-08-03 05:41:09 51°18.158 2°51.957 22.601 0.108821 0.554115 -3.020363
2011-08-03 05:41:14 51°18.175 2°51.95 22.6327 0.108924 0.554659 -3.020363
2011-08-03 05:41:19 51°18.192 2°51.942 22.6207 0.108924 0.554659 -3.020363
2011-08-03 05:41:23 51°18.206 2°51.935 22.6175 0.108821 0.554124 -3.020363
2011-08-03 05:41:29 51°18.227 2°51.926 22.6326 0.108821 0.554124 -3.020363
2011-08-03 05:41:34 51°18.244 2°51.918 22.6264 0.108718 0.553579 -3.020363
2011-08-03 05:41:39 51°18.261 2°51.909 22.6328 0.108718 0.553579 -3.020363
2011-08-03 05:41:43 51°18.275 2°51.902 22.6328 0.108718 0.553588 -3.020363
2011-08-03 05:41:49 51°18.295 2°51.891 22.6161 0.108718 0.553588 -3.020363
2011-08-03 05:41:54 51°18.312 2°51.881 22.6265 0.108718 0.553588 -3.020363
2011-08-03 05:41:59 51°18.329 2°51.872 22.6264 0.108615 0.553044 -3.020363
2011-08-03 05:42:03 51°18.343 2°51.864 22.6218 0.108718 0.553588 -3.020363
2011-08-03 05:42:08 51°18.36 2°51.854 22.6054 0.108718 0.553579 -3.020363
2011-08-03 05:42:14 51°18.381 2°51.843 22.6177 0.108718 0.553588 -3.020363
2011-08-03 05:42:19 51°18.398 2°51.833 22.6385 0.108718 0.553588 -3.020363
2011-08-03 05:42:23 51°18.411 2°51.826 22.6155 0.108821 0.554133 -3.020363
2011-08-03 05:42:29 51°18.432 2°51.815 22.6318 0.108821 0.554133 -3.020363
2011-08-03 05:42:34 51°18.449 2°51.806 22.6236 0.108718 0.553597 -3.020363
2011-08-03 05:42:39 51°18.467 2°51.798 22.6262 0.108821 0.554133 -3.020363
2011-08-03 05:42:43 51°18.48 2°51.791 22.627 0.108821 0.554133 -3.020363
2011-08-03 05:42:49 51°18.501 2°51.781 22.626 0.108821 0.554133 -3.020363
2011-08-03 05:42:54 51°18.519 2°51.772 22.6234 0.108821 0.554141 -3.020363
2011-08-03 05:42:59 51°18.536 2°51.764 22.6205 0.108821 0.554141 -3.020363
2011-08-03 05:43:03 51°18.55 2°51.757 22.5961 0.108821 0.554133 -3.020363
2011-08-03 05:43:09 51°18.57 2°51.748 22.625 0.108821 0.554141 -3.020363
2011-08-03 05:43:14 51°18.588 2°51.74 22.6207 0.108924 0.554686 -3.020363
2011-08-03 05:43:19 51°18.605 2°51.733 22.6283 0.108924 0.554686 -3.020363
2011-08-03 05:43:23 51°18.62 2°51.728 22.6309 0.108924 0.554686 -3.020363
2011-08-03 05:43:29 51°18.641 2°51.719 22.652 0.109027 0.55523 -3.020363
2011-08-03 05:43:34 51°18.658 2°51.713 22.6405 0.108924 0.554695 -3.020363
2011-08-03 05:43:39 51°18.676 2°51.705 22.6243 0.108821 0.554159 -3.020363
2011-08-03 05:43:43 51°18.69 2°51.699 22.6301 0.108821 0.55415 -3.020363
2011-08-03 05:43:49 51°18.711 2°51.689 22.6315 0.108821 0.55415 -3.020363
2011-08-03 05:43:54 51°18.728 2°51.682 22.6283 0.108718 0.553606 -3.020363
2011-08-03 05:43:59 51°18.745 2°51.673 22.6539 0.108924 0.554695 -3.020363
2011-08-03 05:44:03 51°18.759 2°51.666 22.6404 0.108821 0.55415 -3.020363
2011-08-03 05:44:09 51°18.78 2°51.655 22.6417 0.108615 0.553061 -3.020363
2011-08-03 05:44:14 51°18.797 2°51.645 22.6285 0.108718 0.553606 -3.020363
2011-08-03 05:44:19 51°18.813 2°51.634 22.6382 0.108718 0.553606 -3.020363
2011-08-03 05:44:23 51°18.827 2°51.625 22.6327 0.108718 0.553606 -3.020363
2011-08-03 05:44:28 51°18.843 2°51.615 22.6437 0.108718 0.553606 -3.020363
2011-08-03 05:44:33 51°18.86 2°51.604 22.6346 0.108821 0.55415 -3.020363
2011-08-03 05:44:39 51°18.881 2°51.591 22.6457 0.108821 0.55415 -3.020363
2011-08-03 05:44:43 51°18.894 2°51.583 22.6297 0.108821 0.55415 -3.020363
2011-08-03 05:44:48 51°18.911 2°51.573 22.6294 0.108821 0.55415 -3.020363
2011-08-03 05:44:53 51°18.928 2°51.564 22.6105 0.108821 0.55415 -3.020363
2011-08-03 05:44:59 51°18.949 2°51.552 22.6342 0.108924 0.554695 -3.020363
2011-08-03 05:45:03 51°18.963 2°51.546 22.6151 0.109027 0.555239 -3.020363
2011-08-03 05:45:08 51°18.98 2°51.537 22.6352 0.109027 0.555248 -3.020363
2011-08-03 05:45:13 51°18.997 2°51.529 22.6424 0.108924 0.554704 -3.020363
2011-08-03 05:45:19 51°19.018 2°51.52 22.6548 0.108924 0.554704 -3.020363
2011-08-03 05:45:23 51°19.032 2°51.513 22.6417 0.108924 0.554704 -3.020363
2011-08-03 05:45:28 51°19.05 2°51.505 22.6604 0.108924 0.554712 -3.020363
2011-08-03 05:45:34 51°19.071 2°51.495 22.648 0.108718 0.553624 -3.020363
2011-08-03 05:45:39 51°19.088 2°51.486 22.6483 0.108821 0.554168 -3.020363
2011-08-03 05:45:43 51°19.101 2°51.479 22.6377 0.108615 0.553079 -3.020363
2011-08-03 05:45:49 51°19.122 2°51.467 22.6612 0.108615 0.553079 -3.020363
2011-08-03 05:45:54 51°19.139 2°51.456 22.6562 0.108718 0.553624 -3.020363
2011-08-03 05:45:59 51°19.155 2°51.446 22.6396 0.108718 0.553624 -3.020363
2011-08-03 05:46:03 51°19.169 2°51.438 22.6498 0.108718 0.553632 -3.020363
2011-08-03 05:46:08 51°19.186 2°51.427 22.631 0.108821 0.554168 -3.020363
2011-08-03 05:46:13 51°19.203 2°51.417 22.6108 0.108821 0.554177 -3.020363
2011-08-03 05:46:19 51°19.223 2°51.405 22.6113 0.108821 0.554177 -3.020363
2011-08-03 05:46:23 51°19.237 2°51.397 22.6147 0.108924 0.554712 -3.020363
2011-08-03 05:46:28 51°19.254 2°51.388 22.616 0.108924 0.554712 -3.020363
2011-08-03 05:46:33 51°19.271 2°51.38 22.6437 0.109027 0.555257 -3.020363
2011-08-03 05:46:39 51°19.292 2°51.371 22.6573 0.109027 0.555257 -3.020363
2011-08-03 05:46:43 51°19.306 2°51.364 22.6627 0.108924 0.554721 -3.020363
2011-08-03 05:46:48 51°19.323 2°51.357 22.6675 0.108924 0.554721 -3.020363
2011-08-03 05:46:54 51°19.344 2°51.347 22.6413 0.108924 0.554721 -3.020363
2011-08-03 05:46:59 51°19.361 2°51.339 22.6646 0.108924 0.554721 -3.020363
2011-08-03 05:47:03 51°19.375 2°51.333 22.6772 0.108924 0.554721 -3.020363
2011-08-03 05:47:08 51°19.392 2°51.325 22.6737 0.108821 0.554186 -3.020363
2011-08-03 05:47:14 51°19.412 2°51.314 22.6596 0.108821 0.554186 -3.020363
2011-08-03 05:47:19 51°19.429 2°51.306 22.6704 0.108821 0.554186 -3.020363
2011-08-03 05:47:23 51°19.443 2°51.298 22.6498 0.108718 0.55365 -3.020363
2011-08-03 05:47:28 51°19.459 2°51.287 22.6693 0.108718 0.553641 -3.020363
2011-08-03 05:47:34 51°19.479 2°51.275 22.6465 0.108821 0.554177 -3.020363
2011-08-03 05:47:39 51°19.496 2°51.264 22.658 0.108821 0.554186 -3.020363
2011-08-03 05:47:43 51°19.509 2°51.256 22.6498 0.108718 0.553632 -3.020363
2011-08-03 05:47:48 51°19.526 2°51.246 22.6519 0.108718 0.553632 -3.020363
2011-08-03 05:47:54 51°19.546 2°51.233 22.66 0.108821 0.554186 -3.020363
2011-08-03 05:47:59 51°19.563 2°51.223 22.6365 0.108924 0.55473 -3.020363
2011-08-03 05:48:03 51°19.576 2°51.216 22.6612 0.108924 0.55473 -3.020363
2011-08-03 05:48:09 51°19.597 2°51.205 22.6422 0.109027 0.555266 -3.020363
2011-08-03 05:48:14 51°19.614 2°51.196 22.6587 0.108924 0.55473 -3.020363
2011-08-03 05:48:19 51°19.631 2°51.188 22.6598 0.108924 0.55473 -3.020363
2011-08-03 05:48:23 51°19.645 2°51.182 22.651 0.109027 0.555275 -3.020363
2011-08-03 05:48:29 51°19.666 2°51.172 22.67 0.108924 0.55473 -3.020363
2011-08-03 05:48:34 51°19.683 2°51.164 22.672 0.108924 0.554739 -3.020363
2011-08-03 05:48:39 51°19.7 2°51.156 22.6847 0.108924 0.554739 -3.020363
2011-08-03 05:48:43 51°19.714 2°51.15 22.6624 0.108924 0.554739 -3.020363
2011-08-03 05:48:48 51°19.731 2°51.141 22.6576 0.108924 0.554739 -3.020363
2011-08-03 05:48:54 51°19.752 2°51.131 22.6772 0.108924 0.554739 -3.020363
2011-08-03 05:48:59 51°19.769 2°51.123 22.6689 0.108924 0.554739 -3.020363
2011-08-03 05:49:03 51°19.783 2°51.116 22.6673 0.108821 0.554203 -3.020363
2011-08-03 05:49:08 51°19.8 2°51.107 22.6804 0.108924 0.554748 -3.020363
2011-08-03 05:49:13 51°19.818 2°51.099 22.6749 0.108821 0.554203 -3.020363
2011-08-03 05:49:19 51°19.838 2°51.088 22.6936 0.108821 0.554203 -3.020363
2011-08-03 05:49:23 51°19.852 2°51.08 22.6839 0.108821 0.554203 -3.020363
2011-08-03 05:49:28 51°19.869 2°51.07 22.6785 0.108718 0.553659 -3.020363
2011-08-03 05:49:33 51°19.885 2°51.059 22.6741 0.108718 0.553659 -3.020363
2011-08-03 05:49:39 51°19.905 2°51.046 22.6873 0.108718 0.553659 -3.020363
2011-08-03 05:49:43 51°19.918 2°51.037 22.6596 0.108821 0.554212 -3.020363
2011-08-03 05:49:48 51°19.935 2°51.025 22.6743 0.108821 0.554212 -3.020363
2011-08-03 05:49:54 51°19.955 2°51.012 22.6562 0.108718 0.553668 -3.020363
2011-08-03 05:49:59 51°19.971 2°51 22.6665 0.108821 0.554203 -3.020363
2011-08-03 05:50:03 51°19.985 2°50.991 22.6647 0.108821 0.554212 -3.020363
2011-08-03 05:50:08 51°20.001 2°50.98 22.6792 0.108924 0.554748 -3.020363
2011-08-03 05:50:14 51°20.021 2°50.967 22.6903 0.108821 0.554212 -3.020363
2011-08-03 05:50:19 51°20.038 2°50.956 22.6859 0.108821 0.554212 -3.020363
2011-08-03 05:50:23 51°20.051 2°50.947 22.6768 0.108924 0.554757 -3.020363
2011-08-03 05:50:28 51°20.068 2°50.936 22.6865 0.108821 0.554212 -3.020363
2011-08-03 05:50:33 51°20.085 2°50.925 22.6827 0.108924 0.554757 -3.020363
2011-08-03 05:50:39 51°20.105 2°50.912 22.6892 0.108821 0.554212 -3.020363
2011-08-03 05:50:43 51°20.118 2°50.903 22.6771 0.108924 0.554765 -3.020363
2011-08-03 05:50:48 51°20.135 2°50.892 22.6868 0.108924 0.554765 -3.020363
2011-08-03 05:50:54 51°20.155 2°50.88 22.6868 0.108924 0.554757 -3.020363
2011-08-03 05:50:59 51°20.172 2°50.869 22.6858 0.108821 0.554221 -3.020363
2011-08-03 05:51:03 51°20.185 2°50.861 22.6915 0.108924 0.554765 -3.020363
2011-08-03 05:51:08 51°20.202 2°50.85 22.6884 0.108924 0.554765 -3.020363
2011-08-03 05:51:14 51°20.222 2°50.837 22.701 0.108924 0.554765 -3.020363
2011-08-03 05:51:19 51°20.239 2°50.826 22.6923 0.108924 0.554765 -3.020363
2011-08-03 05:51:23 51°20.253 2°50.818 22.688 0.108821 0.55423 -3.020363
2011-08-03 05:51:29 51°20.273 2°50.805 22.6879 0.108924 0.554765 -3.020363
2011-08-03 05:51:33 51°20.286 2°50.797 22.6939 0.108924 0.554765 -3.020363
2011-08-03 05:51:39 51°20.306 2°50.784 22.6837 0.108924 0.554774 -3.020363
2011-08-03 05:51:43 51°20.32 2°50.775 22.6912 0.108924 0.554774 -3.020363
2011-08-03 05:51:49 51°20.34 2°50.762 22.675 0.108924 0.554774 -3.020363
2011-08-03 05:51:53 51°20.354 2°50.754 22.6703 0.108924 0.554774 -3.020363
2011-08-03 05:51:58 51°20.371 2°50.745 22.6681 0.108924 0.554774 -3.020363
2011-08-03 05:52:03 51°20.388 2°50.735 22.6876 0.108924 0.554774 -3.020363
2011-08-03 05:52:09 51°20.409 2°50.725 22.6794 0.109027 0.555319 -3.020363
2011-08-03 05:52:13 51°20.423 2°50.718 22.6976 0.10913 0.555863 -3.020363
2011-08-03 05:52:18 51°20.44 2°50.71 22.7073 0.10913 0.555863 -3.020363
2011-08-03 05:52:23 51°20.458 2°50.703 22.6926 0.109027 0.555328 -3.020363
2011-08-03 05:52:29 51°20.479 2°50.694 22.7028 0.10913 0.555872 -3.020363
2011-08-03 05:52:33 51°20.493 2°50.688 22.6968 0.109027 0.555328 -3.020363
2011-08-03 05:52:39 51°20.514 2°50.678 22.7045 0.108924 0.554783 -3.020363
2011-08-03 05:52:43 51°20.528 2°50.672 22.6991 0.108924 0.554783 -3.020363
2011-08-03 05:52:48 51°20.545 2°50.664 22.7011 0.108924 0.554783 -3.020363
2011-08-03 05:52:53 51°20.562 2°50.656 22.7011 0.109027 0.555336 -3.020363
2011-08-03 05:52:59 51°20.583 2°50.646 22.7041 0.108924 0.554783 -3.020363
2011-08-03 05:53:03 51°20.597 2°50.64 22.7036 0.108924 0.554792 -3.020363
2011-08-03 05:53:08 51°20.614 2°50.631 22.7187 0.108821 0.554247 -3.020363
2011-08-03 05:53:14 51°20.635 2°50.619 22.7104 0.108924 0.554792 -3.020363
2011-08-03 05:53:19 51°20.652 2°50.609 22.7012 0.108924 0.554792 -3.020363
2011-08-03 05:53:23 51°20.665 2°50.6 22.7038 0.108718 0.553703 -3.020363
2011-08-03 05:53:28 51°20.682 2°50.589 22.7075 0.108821 0.554247 -3.020363
2011-08-03 05:53:33 51°20.699 2°50.578 22.6984 0.108821 0.554247 -3.020363
2011-08-03 05:53:39 51°20.719 2°50.565 22.6845 0.108821 0.554247 -3.020363
2011-08-03 05:53:43 51°20.732 2°50.557 22.661 0.108924 0.554792 -3.020363
2011-08-03 05:53:48 51°20.749 2°50.546 22.6681 0.108924 0.554792 -3.020363
2011-08-03 05:53:54 51°20.77 2°50.535 22.6839 0.108924 0.554783 -3.020363
2011-08-03 05:53:59 51°20.787 2°50.525 22.6814 0.109027 0.555328 -3.020363
2011-08-03 05:54:03 51°20.801 2°50.519 22.7149 0.10913 0.555872 -3.020363
2011-08-03 05:54:08 51°20.819 2°50.511 22.7088 0.109027 0.555336 -3.020363
2011-08-03 05:54:14 51°20.84 2°50.501 22.7039 0.109027 0.555345 -3.020363
2011-08-03 05:54:19 51°20.859 2°50.494 22.7224 0.109027 0.555345 -3.020363
2011-08-03 05:54:23 51°20.873 2°50.488 22.7256 0.109027 0.555345 -3.020363
2011-08-03 05:54:28 51°20.891 2°50.48 22.7166 0.109027 0.555345 -3.020363
2011-08-03 05:54:34 51°20.912 2°50.47 22.7245 0.109027 0.555345 -3.020363
2011-08-03 05:54:39 51°20.929 2°50.461 22.7277 0.108821 0.554265 -3.020363
2011-08-03 05:54:43 51°20.942 2°50.453 22.7277 0.108924 0.55481 -3.020363
2011-08-03 05:54:48 51°20.959 2°50.443 22.7044 0.108924 0.55481 -3.020363
2011-08-03 05:54:54 51°20.979 2°50.43 22.7107 0.108821 0.554265 -3.020363
2011-08-03 05:54:59 51°20.996 2°50.419 22.7041 0.108821 0.554265 -3.020363
2011-08-03 05:55:03 51°21.009 2°50.411 22.7053 0.108924 0.55481 -3.020363
2011-08-03 05:55:08 51°21.026 2°50.4 22.7085 0.108924 0.55481 -3.020363
2011-08-03 05:55:14 51°21.047 2°50.388 22.7177 0.108924 0.55481 -3.020363
2011-08-03 05:55:19 51°21.064 2°50.378 22.7231 0.108924 0.55481 -3.020363
2011-08-03 05:55:23 51°21.077 2°50.37 22.7254 0.109027 0.555363 -3.020363
2011-08-03 05:55:28 51°21.094 2°50.36 22.7126 0.108924 0.55481 -3.020363
2011-08-03 05:55:34 51°21.114 2°50.347 22.7184 0.108924 0.554818 -3.020363
2011-08-03 05:55:39 51°21.131 2°50.337 22.7159 0.109027 0.555354 -3.020363
2011-08-03 05:55:43 51°21.145 2°50.329 22.6987 0.108924 0.55481 -3.020363
2011-08-03 05:55:48 51°21.162 2°50.32 22.6713 0.108924 0.55481 -3.020363
2011-08-03 05:55:54 51°21.183 2°50.309 22.7165 0.109027 0.555354 -3.020363
2011-08-03 05:55:59 51°21.201 2°50.3 22.7057 0.10913 0.555899 -3.020363
2011-08-03 05:56:03 51°21.214 2°50.294 22.7189 0.10913 0.555899 -3.020363
2011-08-03 05:56:08 51°21.232 2°50.287 22.7254 0.109232 0.556452 -3.020363
2011-08-03 05:56:13 51°21.249 2°50.28 22.7299 0.10913 0.555908 -3.020363
2011-08-03 05:56:19 51°21.27 2°50.273 22.7316 0.10913 0.555908 -3.020363
2011-08-03 05:56:23 51°21.285 2°50.268 22.7467 0.109232 0.556461 -3.020363
2011-08-03 05:56:29 51°21.306 2°50.261 22.7443 0.109027 0.555372 -3.020363
2011-08-03 05:56:34 51°21.324 2°50.255 22.7424 0.10913 0.555917 -3.020363
2011-08-03 05:56:38 51°21.338 2°50.25 22.7448 0.109027 0.555372 -3.020363
2011-08-03 05:56:43 51°21.355 2°50.243 22.7307 0.108924 0.554827 -3.020363
2011-08-03 05:56:49 51°21.376 2°50.235 22.7285 0.108924 0.554827 -3.020363
2011-08-03 05:56:54 51°21.394 2°50.228 22.7376 0.109027 0.555381 -3.020363
2011-08-03 05:56:58 51°21.408 2°50.222 22.7415 0.108924 0.554827 -3.020363
2011-08-03 05:57:03 51°21.425 2°50.215 22.7509 0.108924 0.554836 -3.020363
2011-08-03 05:57:09 51°21.446 2°50.205 22.7425 0.109027 0.555381 -3.020363
2011-08-03 05:57:14 51°21.464 2°50.197 22.7451 0.108924 0.554836 -3.020363
2011-08-03 05:57:19 51°21.481 2°50.189 22.7339 0.108924 0.554836 -3.020363
2011-08-03 05:57:23 51°21.495 2°50.182 22.7357 0.108924 0.554836 -3.020363
2011-08-03 05:57:29 51°21.516 2°50.172 22.7237 0.109027 0.555381 -3.020363
2011-08-03 05:57:34 51°21.533 2°50.163 22.7393 0.108924 0.554836 -3.020363
2011-08-03 05:57:39 51°21.551 2°50.155 22.7485 0.109027 0.555381 -3.020363
2011-08-03 05:57:43 51°21.564 2°50.148 22.7396 0.109027 0.555381 -3.020363
2011-08-03 05:57:48 51°21.582 2°50.14 22.7343 0.109027 0.555381 -3.020363
2011-08-03 05:57:54 51°21.603 2°50.13 22.7341 0.109027 0.555381 -3.020363
2011-08-03 05:57:59 51°21.621 2°50.122 22.731 0.109027 0.555381 -3.020363
2011-08-03 05:58:03 51°21.635 2°50.116 22.722 0.109027 0.555381 -3.020363
2011-08-03 05:58:08 51°21.653 2°50.109 22.7531 0.10913 0.555934 -3.020363
2011-08-03 05:58:13 51°21.671 2°50.102 22.7526 0.10913 0.555934 -3.020363
2011-08-03 05:58:19 51°21.692 2°50.095 22.7574 0.10913 0.555934 -3.020363
2011-08-03 05:58:23 51°21.706 2°50.09 22.7512 0.109232 0.556479 -3.020363
2011-08-03 05:58:29 51°21.727 2°50.083 22.7584 0.109027 0.55539 -3.020363
2011-08-03 05:58:33 51°21.742 2°50.078 22.7567 0.10913 0.555934 -3.020363
2011-08-03 05:58:39 51°21.763 2°50.071 22.7449 0.10913 0.555943 -3.020363
2011-08-03 05:58:43 51°21.777 2°50.066 22.7646 0.109027 0.555398 -3.020363
2011-08-03 05:58:48 51°21.795 2°50.06 22.7541 0.109027 0.555398 -3.020363
2011-08-03 05:58:53 51°21.813 2°50.054 22.7544 0.10913 0.555943 -3.020363
2011-08-03 05:58:59 51°21.835 2°50.046 22.7639 0.109027 0.555407 -3.020363
2011-08-03 05:59:03 51°21.849 2°50.04 22.7708 0.109027 0.555398 -3.020363
2011-08-03 05:59:08 51°21.866 2°50.033 22.7607 0.109027 0.555407 -3.020363
2011-08-03 05:59:13 51°21.884 2°50.025 22.7677 0.108924 0.554854 -3.020363
2011-08-03 05:59:19 51°21.905 2°50.016 22.7563 0.108924 0.554854 -3.020363
2011-08-03 05:59:23 51°21.919 2°50.009 22.7688 0.108924 0.554863 -3.020363
2011-08-03 05:59:28 51°21.936 2°50 22.7574 0.108924 0.554863 -3.020363
2011-08-03 05:59:33 51°21.953 2°49.991 22.735 0.109027 0.555398 -3.020363
2011-08-03 05:59:39 51°21.974 2°49.981 22.7653 0.108924 0.554854 -3.020363
2011-08-03 05:59:43 51°21.988 2°49.974 22.7577 0.109027 0.555398 -3.020363
2011-08-03 05:59:49 51°22.009 2°49.964 22.7589 0.109027 0.555398 -3.020363
2011-08-03 05:59:54 51°22.027 2°49.956 22.7447 0.109027 0.555398 -3.020363
2011-08-03 05:59:59 51°22.044 2°49.947 22.7345 0.109027 0.555407 -3.020363
2011-08-03 06:00:03 51°22.059 2°49.941 22.7656 0.10913 0.555943 -3.020363
2011-08-03 06:00:08 51°22.076 2°49.933 22.7694 0.109027 0.555407 -3.020363
2011-08-03 06:00:14 51°22.097 2°49.924 22.7571 0.10913 0.555952 -3.020363
2011-08-03 06:00:19 51°22.115 2°49.917 22.7535 0.10913 0.555952 -3.020363
2011-08-03 06:00:23 51°22.129 2°49.912 22.7597 0.10913 0.555952 -3.020363
2011-08-03 06:00:28 51°22.147 2°49.906 22.7714 0.10913 0.555952 -3.020363
2011-08-03 06:00:34 51°22.168 2°49.898 22.772 0.109232 0.556506 -3.020363
2011-08-03 06:00:39 51°22.186 2°49.892 22.7713 0.10913 0.555961 -3.020363
2011-08-03 06:00:43 51°22.2 2°49.887 22.7711 0.10913 0.555961 -3.020363
2011-08-03 06:00:48 51°22.218 2°49.88 22.7889 0.10913 0.555961 -3.020363
2011-08-03 06:00:54 51°22.239 2°49.872 22.7744 0.10913 0.555961 -3.020363
2011-08-03 06:00:59 51°22.257 2°49.865 22.7857 0.10913 0.55597 -3.020363
2011-08-03 06:01:03 51°22.271 2°49.86 22.7813 0.10913 0.55597 -3.020363
2011-08-03 06:01:08 51°22.288 2°49.852 22.7901 0.109027 0.555425 -3.020363
2011-08-03 06:01:14 51°22.309 2°49.842 22.7701 0.108924 0.55488 -3.020363
2011-08-03 06:01:19 51°22.327 2°49.833 22.7811 0.108924 0.55488 -3.020363
2011-08-03 06:01:23 51°22.341 2°49.826 22.7805 0.108924 0.55488 -3.020363
2011-08-03 06:01:28 51°22.358 2°49.817 22.7737 0.108924 0.55488 -3.020363
2011-08-03 06:01:34 51°22.378 2°49.806 22.7588 0.10913 0.55597 -3.020363
2011-08-03 06:01:39 51°22.395 2°49.797 22.7664 0.109027 0.555425 -3.020363
2011-08-03 06:01:43 51°22.409 2°49.789 22.7633 0.10913 0.55597 -3.020363
2011-08-03 06:01:48 51°22.426 2°49.78 22.7867 0.10913 0.55597 -3.020363
2011-08-03 06:01:54 51°22.447 2°49.77 22.7689 0.109027 0.555425 -3.020363
2011-08-03 06:01:59 51°22.464 2°49.761 22.7912 0.109232 0.556514 -3.020363
2011-08-03 06:02:03 51°22.478 2°49.754 22.7591 0.109027 0.555425 -3.020363
2011-08-03 06:02:08 51°22.495 2°49.745 22.7827 0.10913 0.55597 -3.020363
2011-08-03 06:02:13 51°22.513 2°49.737 22.7721 0.109232 0.556523 -3.020363
2011-08-03 06:02:19 51°22.534 2°49.728 22.7758 0.109232 0.556523 -3.020363
2011-08-03 06:02:23 51°22.548 2°49.723 22.7766 0.10913 0.55597 -3.020363
2011-08-03 06:02:29 51°22.569 2°49.715 22.7863 0.109232 0.556514 -3.020363
2011-08-03 06:02:34 51°22.587 2°49.709 22.7993 0.109027 0.555434 -3.020363
2011-08-03 06:02:39 51°22.605 2°49.703 22.7717 0.109232 0.556523 -3.020363
2011-08-03 06:02:43 51°22.619 2°49.698 22.7995 0.10913 0.555979 -3.020363
2011-08-03 06:02:49 51°22.64 2°49.691 22.8012 0.10913 0.555979 -3.020363
2011-08-03 06:02:53 51°22.654 2°49.686 22.8068 0.109232 0.556532 -3.020363
2011-08-03 06:02:59 51°22.676 2°49.678 22.7664 0.10913 0.555987 -3.020363
2011-08-03 06:03:03 51°22.69 2°49.672 22.7776 0.10913 0.555987 -3.020363
2011-08-03 06:03:09 51°22.711 2°49.664 22.7935 0.109027 0.555443 -3.020363
2011-08-03 06:03:13 51°22.725 2°49.659 22.8062 0.10913 0.555987 -3.020363
2011-08-03 06:03:18 51°22.743 2°49.652 22.8041 0.10913 0.555987 -3.020363
2011-08-03 06:03:23 51°22.76 2°49.644 22.8099 0.10913 0.555987 -3.020363
2011-08-03 06:03:29 51°22.782 2°49.635 22.8101 0.109027 0.555452 -3.020363
2011-08-03 06:03:34 51°22.799 2°49.627 22.7971 0.108924 0.554907 -3.020363
2011-08-03 06:03:38 51°22.813 2°49.62 22.7841 0.108821 0.554362 -3.020363
2011-08-03 06:03:43 51°22.83 2°49.611 22.778 0.108924 0.554907 -3.020363
2011-08-03 06:03:49 51°22.851 2°49.6 22.7921 0.108924 0.554907 -3.020363
2011-08-03 06:03:54 51°22.868 2°49.592 22.7737 0.10913 0.555996 -3.020363
2011-08-03 06:03:58 51°22.882 2°49.584 22.8091 0.109027 0.555452 -3.020363
2011-08-03 06:04:03 51°22.9 2°49.575 22.8045 0.109027 0.555452 -3.020363
2011-08-03 06:04:09 51°22.92 2°49.565 22.7615 0.10913 0.556005 -3.020363
2011-08-03 06:04:14 51°22.938 2°49.556 22.7755 0.109027 0.555452 -3.020363
2011-08-03 06:04:19 51°22.956 2°49.548 22.7924 0.109027 0.555452 -3.020363
2011-08-03 06:04:23 51°22.97 2°49.541 22.7988 0.109232 0.55655 -3.020363
2011-08-03 06:04:29 51°22.991 2°49.533 22.8006 0.10913 0.556005 -3.020363
2011-08-03 06:04:34 51°23.008 2°49.525 22.8084 0.109232 0.55655 -3.020363
2011-08-03 06:04:39 51°23.026 2°49.518 22.8033 0.109232 0.55655 -3.020363
2011-08-03 06:04:43 51°23.041 2°49.512 22.8036 0.109232 0.55655 -3.020363
2011-08-03 06:04:48 51°23.058 2°49.505 22.7954 0.109232 0.55655 -3.020363
2011-08-03 06:04:54 51°23.08 2°49.496 22.8022 0.109232 0.55655 -3.020363
2011-08-03 06:04:59 51°23.097 2°49.49 22.8121 0.109232 0.55655 -3.020363
2011-08-03 06:05:03 51°23.112 2°49.484 22.8095 0.109232 0.55655 -3.020363
2011-08-03 06:05:08 51°23.13 2°49.477 22.8237 0.10913 0.556014 -3.020363
2011-08-03 06:05:13 51°23.148 2°49.47 22.8232 0.10913 0.556014 -3.020363
2011-08-03 06:05:19 51°23.169 2°49.461 22.8142 0.10913 0.556014 -3.020363
2011-08-03 06:05:23 51°23.183 2°49.454 22.8282 0.10913 0.556023 -3.020363
2011-08-03 06:05:28 51°23.2 2°49.446 22.8208 0.109027 0.555478 -3.020363
2011-08-03 06:05:33 51°23.218 2°49.437 22.8146 0.108924 0.554933 -3.020363
2011-08-03 06:05:39 51°23.239 2°49.425 22.8046 0.109027 0.555478 -3.020363
2011-08-03 06:05:43 51°23.253 2°49.417 22.8097 0.109027 0.555469 -3.020363
2011-08-03 06:05:49 51°23.273 2°49.405 22.7975 0.109027 0.555469 -3.020363
2011-08-03 06:05:54 51°23.29 2°49.395 22.7956 0.109027 0.555478 -3.020363
2011-08-03 06:05:59 51°23.307 2°49.385 22.7969 0.10913 0.556023 -3.020363
2011-08-03 06:06:03 51°23.321 2°49.377 22.799 0.109232 0.556559 -3.020363
2011-08-03 06:06:09 51°23.342 2°49.366 22.8044 0.109232 0.556559 -3.020363
2011-08-03 06:06:14 51°23.36 2°49.357 22.8138 0.109335 0.557112 -3.020363
2011-08-03 06:06:19 51°23.378 2°49.349 22.8095 0.109335 0.557112 -3.020363
2011-08-03 06:06:23 51°23.392 2°49.343 22.8222 0.109232 0.556568 -3.020363
2011-08-03 06:06:29 51°23.413 2°49.334 22.8334 0.109335 0.557121 -3.020363
2011-08-03 06:06:34 51°23.431 2°49.327 22.8333 0.109232 0.556576 -3.020363
2011-08-03 06:06:39 51°23.449 2°49.32 22.8335 0.109232 0.556576 -3.020363
2011-08-03 06:06:43 51°23.463 2°49.314 22.8152 0.10913 0.556032 -3.020363
2011-08-03 06:06:48 51°23.48 2°49.306 22.8252 0.10913 0.556032 -3.020363
2011-08-03 06:06:54 51°23.501 2°49.297 22.8306 0.109232 0.556585 -3.020363
2011-08-03 06:06:59 51°23.519 2°49.289 22.8226 0.10913 0.556041 -3.020363
2011-08-03 06:07:03 51°23.533 2°49.282 22.8343 0.10913 0.556041 -3.020363
2011-08-03 06:07:08 51°23.55 2°49.272 22.8273 0.109027 0.555505 -3.020363
2011-08-03 06:07:14 51°23.571 2°49.261 22.8235 0.109232 0.556585 -3.020363
2011-08-03 06:07:19 51°23.588 2°49.252 22.818 0.109232 0.556585 -3.020363
2011-08-03 06:07:23 51°23.602 2°49.244 22.8342 0.10913 0.556041 -3.020363
2011-08-03 06:07:28 51°23.619 2°49.235 22.8335 0.10913 0.556049 -3.020363
2011-08-03 06:07:33 51°23.636 2°49.225 22.8245 0.10913 0.556049 -3.020363
2011-08-03 06:07:39 51°23.657 2°49.213 22.8318 0.10913 0.556049 -3.020363
2011-08-03 06:07:43 51°23.671 2°49.205 22.8195 0.109027 0.555496 -3.020363
2011-08-03 06:07:48 51°23.688 2°49.195 22.8302 0.109027 0.555496 -3.020363
2011-08-03 06:07:54 51°23.708 2°49.184 22.8203 0.10913 0.556049 -3.020363
2011-08-03 06:07:59 51°23.726 2°49.174 22.8328 0.10913 0.556041 -3.020363
2011-08-03 06:08:03 51°23.739 2°49.166 22.8403 0.10913 0.556049 -3.020363
2011-08-03 06:08:08 51°23.756 2°49.156 22.8156 0.10913 0.556058 -3.020363
2011-08-03 06:08:14 51°23.777 2°49.145 22.8356 0.10913 0.556058 -3.020363
2011-08-03 06:08:19 51°23.794 2°49.135 22.8242 0.10913 0.556058 -3.020363
2011-08-03 06:08:23 51°23.808 2°49.127 22.83 0.10913 0.556058 -3.020363
2011-08-03 06:08:28 51°23.825 2°49.118 22.8094 0.10913 0.556058 -3.020363
2011-08-03 06:08:34 51°23.846 2°49.108 22.8351 0.109232 0.556603 -3.020363
2011-08-03 06:08:39 51°23.863 2°49.099 22.8361 0.109232 0.556603 -3.020363
2011-08-03 06:08:43 51°23.877 2°49.093 22.8473 0.109335 0.557148 -3.020363
2011-08-03 06:08:48 51°23.895 2°49.086 22.8426 0.109335 0.557148 -3.020363
2011-08-03 06:08:54 51°23.917 2°49.078 22.8574 0.109335 0.557157 -3.020363
2011-08-03 06:08:59 51°23.935 2°49.071 22.8474 0.109438 0.557702 -3.020363
2011-08-03 06:09:03 51°23.949 2°49.066 22.8611 0.10913 0.556067 -3.020363
2011-08-03 06:09:08 51°23.967 2°49.059 22.8474 0.10913 0.556076 -3.020363
2011-08-03 06:09:14 51°23.988 2°49.05 22.8555 0.10913 0.556076 -3.020363
2011-08-03 06:09:19 51°24.005 2°49.041 22.8587 0.10913 0.556076 -3.020363
2011-08-03 06:09:23 51°24.019 2°49.034 22.8365 0.109027 0.555531 -3.020363
2011-08-03 06:09:28 51°24.036 2°49.025 22.8427 0.109027 0.55554 -3.020363
2011-08-03 06:09:33 51°24.054 2°49.015 22.8537 0.109027 0.555531 -3.020363
2011-08-03 06:09:39 51°24.074 2°49.003 22.8225 0.109232 0.55663 -3.020363
2011-08-03 06:09:43 51°24.088 2°48.995 22.8456 0.10913 0.556085 -3.020363
2011-08-03 06:09:48 51°24.105 2°48.985 22.8222 0.10913 0.556085 -3.020363
2011-08-03 06:09:53 51°24.122 2°48.975 22.8216 0.109027 0.555531 -3.020363
2011-08-03 06:09:59 51°24.142 2°48.962 22.8027 0.109232 0.556621 -3.020363
2011-08-03 06:10:03 51°24.156 2°48.955 22.8379 0.109232 0.556612 -3.020363
2011-08-03 06:10:08 51°24.174 2°48.947 22.8302 0.109335 0.557166 -3.020363
2011-08-03 06:10:13 51°24.191 2°48.94 22.8517 0.109335 0.557166 -3.020363
2011-08-03 06:10:19 51°24.212 2°48.932 22.8517 0.109335 0.557166 -3.020363
2011-08-03 06:10:23 51°24.226 2°48.928 22.8499 0.109232 0.556621 -3.020363
2011-08-03 06:10:29 51°24.248 2°48.921 22.8447 0.109335 0.557175 -3.020363
2011-08-03 06:10:34 51°24.265 2°48.916 22.8671 0.109232 0.55663 -3.020363
2011-08-03 06:10:39 51°24.283 2°48.91 22.8556 0.109438 0.557728 -3.020363
2011-08-03 06:10:43 51°24.297 2°48.907 22.8667 0.109232 0.556639 -3.020363
2011-08-03 06:10:49 51°24.318 2°48.9 22.8382 0.109232 0.556639 -3.020363
2011-08-03 06:10:54 51°24.336 2°48.895 22.8661 0.109232 0.556639 -3.020363
2011-08-03 06:10:59 51°24.354 2°48.89 22.8764 0.109232 0.556639 -3.020363
2011-08-03 06:11:03 51°24.368 2°48.885 22.8725 0.10913 0.556103 -3.020363
2011-08-03 06:11:08 51°24.386 2°48.879 22.8512 0.10913 0.556094 -3.020363
2011-08-03 06:11:14 51°24.407 2°48.871 22.8674 0.10913 0.556094 -3.020363
2011-08-03 06:11:19 51°24.425 2°48.865 22.8613 0.10913 0.556094 -3.020363
2011-08-03 06:11:23 51°24.439 2°48.86 22.8622 0.10913 0.556103 -3.020363
2011-08-03 06:11:28 51°24.457 2°48.854 22.8787 0.10913 0.556103 -3.020363
2011-08-03 06:11:33 51°24.474 2°48.847 22.8431 0.10913 0.556103 -3.020363
2011-08-03 06:11:39 51°24.495 2°48.839 22.8731 0.109232 0.556647 -3.020363
2011-08-03 06:11:43 51°24.509 2°48.833 22.8759 0.10913 0.556103 -3.020363
2011-08-03 06:11:48 51°24.527 2°48.826 22.8558 0.10913 0.556103 -3.020363
2011-08-03 06:11:53 51°24.544 2°48.819 22.8463 0.10913 0.556103 -3.020363
2011-08-03 06:11:59 51°24.565 2°48.81 22.8427 0.109232 0.556647 -3.020363
2011-08-03 06:12:03 51°24.58 2°48.805 22.8387 0.109232 0.556647 -3.020363
2011-08-03 06:12:08 51°24.597 2°48.799 22.8582 0.109232 0.556647 -3.020363
2011-08-03 06:12:14 51°24.619 2°48.792 22.8652 0.109232 0.556647 -3.020363
2011-08-03 06:12:19 51°24.636 2°48.786 22.8659 0.109232 0.556647 -3.020363
2011-08-03 06:12:23 51°24.651 2°48.782 22.8585 0.109335 0.557192 -3.020363
2011-08-03 06:12:28 51°24.669 2°48.777 22.8676 0.109335 0.557201 -3.020363
2011-08-03 06:12:34 51°24.69 2°48.771 22.8551 0.109335 0.557201 -3.020363
2011-08-03 06:12:39 51°24.708 2°48.767 22.8727 0.109232 0.556656 -3.020363
2011-08-03 06:12:43 51°24.723 2°48.764 22.8599 0.109335 0.557201 -3.020363
2011-08-03 06:12:48 51°24.741 2°48.76 22.8718 0.109335 0.557201 -3.020363
2011-08-03 06:12:54 51°24.762 2°48.756 22.876 0.109335 0.557201 -3.020363
2011-08-03 06:12:59 51°24.78 2°48.752 22.8619 0.109232 0.556665 -3.020363
2011-08-03 06:13:03 51°24.795 2°48.748 22.8954 0.109232 0.556665 -3.020363
2011-08-03 06:13:08 51°24.813 2°48.744 22.8736 0.109335 0.557219 -3.020363
2011-08-03 06:13:14 51°24.834 2°48.738 22.8829 0.109232 0.556674 -3.020363
2011-08-03 06:13:19 51°24.852 2°48.733 22.8651 0.109232 0.556674 -3.020363
2011-08-03 06:13:23 51°24.867 2°48.729 22.8821 0.109232 0.556665 -3.020363
2011-08-03 06:13:28 51°24.884 2°48.723 22.88 0.109232 0.556674 -3.020363
2011-08-03 06:13:34 51°24.906 2°48.717 22.8828 0.109232 0.556674 -3.020363
2011-08-03 06:13:39 51°24.924 2°48.711 22.8901 0.10913 0.556129 -3.020363
2011-08-03 06:13:43 51°24.938 2°48.706 22.8831 0.10913 0.556129 -3.020363
2011-08-03 06:13:47 51°24.952 2°48.701 22.8766 0.10913 0.556129 -3.020363
2011-08-03 06:13:54 51°24.977 2°48.692 22.8909 0.10913 0.556129 -3.020363
2011-08-03 06:13:59 51°24.994 2°48.684 22.8601 0.10913 0.556138 -3.020363
2011-08-03 06:14:03 51°25.008 2°48.678 22.8777 0.109232 0.556674 -3.020363
2011-08-03 06:14:08 51°25.025 2°48.671 22.8633 0.10913 0.556129 -3.020363
2011-08-03 06:14:13 51°25.043 2°48.664 22.8734 0.109232 0.556674 -3.020363
2011-08-03 06:14:19 51°25.064 2°48.656 22.8742 0.109232 0.556674 -3.020363
2011-08-03 06:14:23 51°25.078 2°48.65 22.8727 0.109232 0.556674 -3.020363
2011-08-03 06:14:28 51°25.096 2°48.644 22.8709 0.109335 0.557228 -3.020363
2011-08-03 06:14:33 51°25.114 2°48.638 22.8915 0.109232 0.556674 -3.020363
2011-08-03 06:14:39 51°25.135 2°48.632 22.8695 0.109438 0.557764 -3.020363
2011-08-03 06:14:43 51°25.15 2°48.629 22.8982 0.109438 0.557773 -3.020363
2011-08-03 06:14:48 51°25.168 2°48.624 22.882 0.109438 0.557773 -3.020363
2011-08-03 06:14:53 51°25.186 2°48.621 22.8994 0.109335 0.557228 -3.020363
2011-08-03 06:14:59 51°25.207 2°48.616 22.9009 0.109438 0.557782 -3.020363
2011-08-03 06:15:03 51°25.222 2°48.613 22.8874 0.109232 0.556692 -3.020363
2011-08-03 06:15:08 51°25.24 2°48.608 22.8879 0.109232 0.556692 -3.020363
2011-08-03 06:15:14 51°25.262 2°48.603 22.892 0.109335 0.557237 -3.020363
2011-08-03 06:15:19 51°25.28 2°48.599 22.8909 0.109335 0.557237 -3.020363
2011-08-03 06:15:23 51°25.294 2°48.595 22.9106 0.109335 0.557237 -3.020363
2011-08-03 06:15:28 51°25.312 2°48.591 22.9114 0.109232 0.556701 -3.020363
2011-08-03 06:15:34 51°25.334 2°48.585 22.903 0.109335 0.557246 -3.020363
2011-08-03 06:15:39 51°25.352 2°48.58 22.9124 0.10913 0.556156 -3.020363
2011-08-03 06:15:43 51°25.366 2°48.576 22.9094 0.109232 0.556701 -3.020363
2011-08-03 06:15:48 51°25.384 2°48.569 22.9052 0.109232 0.556701 -3.020363
2011-08-03 06:15:54 51°25.406 2°48.561 22.8994 0.10913 0.556165 -3.020363
2011-08-03 06:15:59 51°25.423 2°48.554 22.8754 0.109232 0.55671 -3.020363
2011-08-03 06:16:03 51°25.437 2°48.549 22.8747 0.109232 0.556701 -3.020363
2011-08-03 06:16:08 51°25.455 2°48.542 22.8985 0.109335 0.557255 -3.020363
2011-08-03 06:16:13 51°25.473 2°48.536 22.9033 0.109232 0.55671 -3.020363
2011-08-03 06:16:19 51°25.495 2°48.528 22.8987 0.109232 0.55671 -3.020363
2011-08-03 06:16:23 51°25.509 2°48.523 22.8892 0.109335 0.557255 -3.020363
2011-08-03 06:16:28 51°25.527 2°48.517 22.8773 0.109335 0.557263 -3.020363
2011-08-03 06:16:34 51°25.548 2°48.509 22.8762 0.109335 0.557255 -3.020363
2011-08-03 06:16:39 51°25.566 2°48.504 22.8991 0.109335 0.557255 -3.020363
2011-08-03 06:16:43 51°25.581 2°48.5 22.9044 0.109438 0.5578 -3.020363
2011-08-03 06:16:48 51°25.599 2°48.495 22.9106 0.109438 0.5578 -3.020363
2011-08-03 06:16:54 51°25.621 2°48.49 22.9055 0.109335 0.557255 -3.020363
2011-08-03 06:16:59 51°25.639 2°48.486 22.9161 0.109438 0.557808 -3.020363
2011-08-03 06:17:03 51°25.654 2°48.483 22.9229 0.109438 0.557808 -3.020363
2011-08-03 06:17:08 51°25.672 2°48.479 22.9262 0.109438 0.557817 -3.020363
2011-08-03 06:17:14 51°25.693 2°48.475 22.9095 0.109335 0.557272 -3.020363
2011-08-03 06:17:19 51°25.712 2°48.47 22.9296 0.109335 0.557272 -3.020363
2011-08-03 06:17:23 51°25.726 2°48.467 22.9265 0.109335 0.557272 -3.020363
2011-08-03 06:17:29 51°25.748 2°48.461 22.921 0.109232 0.556736 -3.020363
2011-08-03 06:17:34 51°25.766 2°48.455 22.9265 0.109232 0.556736 -3.020363
2011-08-03 06:17:39 51°25.784 2°48.449 22.9122 0.109232 0.556727 -3.020363
2011-08-03 06:17:43 51°25.799 2°48.444 22.945 0.109232 0.556736 -3.020363
2011-08-03 06:17:48 51°25.817 2°48.438 22.9077 0.109232 0.556736 -3.020363
2011-08-03 06:17:54 51°25.838 2°48.43 22.9339 0.109232 0.556736 -3.020363
2011-08-03 06:17:59 51°25.856 2°48.423 22.8914 0.109335 0.557281 -3.020363
2011-08-03 06:18:03 51°25.871 2°48.417 22.9294 0.109335 0.557281 -3.020363
2011-08-03 06:18:08 51°25.889 2°48.411 22.9268 0.109232 0.556736 -3.020363
2011-08-03 06:18:14 51°25.911 2°48.404 22.9017 0.109438 0.557826 -3.020363
2011-08-03 06:18:19 51°25.929 2°48.398 22.91 0.109438 0.557826 -3.020363
2011-08-03 06:18:23 51°25.943 2°48.393 22.9078 0.109438 0.557826 -3.020363
2011-08-03 06:18:28 51°25.962 2°48.387 22.9188 0.109335 0.557281 -3.020363
2011-08-03 06:18:33 51°25.98 2°48.383 22.9221 0.109438 0.557826 -3.020363
2011-08-03 06:18:39 51°26.002 2°48.378 22.9271 0.109541 0.55838 -3.020363
2011-08-03 06:18:43 51°26.017 2°48.375 22.9424 0.109438 0.557835 -3.020363
2011-08-03 06:18:48 51°26.035 2°48.371 22.9512 0.109438 0.557835 -3.020363
2011-08-03 06:18:53 51°26.054 2°48.366 22.9368 0.109438 0.557844 -3.020363
2011-08-03 06:18:59 51°26.076 2°48.36 22.9417 0.109232 0.556754 -3.020363
2011-08-03 06:19:03 51°26.09 2°48.356 22.9413 0.109335 0.557299 -3.020363
2011-08-03 06:19:08 51°26.109 2°48.35 22.9528 0.109232 0.556754 -3.020363
2011-08-03 06:19:14 51°26.13 2°48.342 22.9401 0.109335 0.557308 -3.020363
2011-08-03 06:19:19 51°26.149 2°48.335 22.9401 0.109335 0.557308 -3.020363
2011-08-03 06:19:23 51°26.163 2°48.33 22.9322 0.109335 0.557308 -3.020363
2011-08-03 06:19:28 51°26.181 2°48.322 22.924 0.109232 0.556763 -3.020363
2011-08-03 06:19:34 51°26.203 2°48.313 22.9407 0.109232 0.556763 -3.020363
2011-08-03 06:19:39 51°26.221 2°48.305 22.9191 0.109335 0.557308 -3.020363
2011-08-03 06:19:43 51°26.235 2°48.299 22.9352 0.109232 0.556763 -3.020363
2011-08-03 06:19:48 51°26.253 2°48.291 22.9346 0.109232 0.556763 -3.020363
2011-08-03 06:19:54 51°26.274 2°48.282 22.9419 0.109335 0.557308 -3.020363
2011-08-03 06:19:59 51°26.292 2°48.275 22.9309 0.109335 0.557308 -3.020363
2011-08-03 06:20:03 51°26.307 2°48.269 22.9347 0.109438 0.557853 -3.020363
2011-08-03 06:20:08 51°26.325 2°48.262 22.9364 0.109335 0.557308 -3.020363
2011-08-03 06:20:14 51°26.346 2°48.254 22.9452 0.109438 0.557862 -3.020363
2011-08-03 06:20:19 51°26.364 2°48.247 22.9339 0.109438 0.557862 -3.020363
2011-08-03 06:20:23 51°26.379 2°48.242 22.9304 0.109335 0.557326 -3.020363
2011-08-03 06:20:28 51°26.397 2°48.235 22.9466 0.109541 0.558407 -3.020363
2011-08-03 06:20:33 51°26.415 2°48.229 22.925 0.109438 0.557871 -3.020363
2011-08-03 06:20:39 51°26.436 2°48.222 22.9674 0.109438 0.557862 -3.020363
2011-08-03 06:20:43 51°26.451 2°48.218 22.9508 0.109541 0.558416 -3.020363
2011-08-03 06:20:48 51°26.469 2°48.212 22.9696 0.109541 0.558416 -3.020363
2011-08-03 06:20:53 51°26.487 2°48.207 22.9611 0.109541 0.558416 -3.020363
2011-08-03 06:20:59 51°26.509 2°48.2 22.9521 0.109438 0.55788 -3.020363
2011-08-03 06:21:03 51°26.523 2°48.196 22.9667 0.109541 0.558425 -3.020363
2011-08-03 06:21:08 51°26.541 2°48.19 22.9623 0.109438 0.557871 -3.020363
2011-08-03 06:21:14 51°26.563 2°48.182 22.9699 0.109541 0.558416 -3.020363
2011-08-03 06:21:19 51°26.581 2°48.176 22.9619 0.109541 0.558416 -3.020363
2011-08-03 06:21:23 51°26.595 2°48.17 22.9365 0.109438 0.557871 -3.020363
2011-08-03 06:21:29 51°26.616 2°48.162 22.9662 0.109438 0.557871 -3.020363
2011-08-03 06:21:34 51°26.634 2°48.156 22.9657 0.109438 0.55788 -3.020363
2011-08-03 06:21:39 51°26.652 2°48.149 22.97 0.109335 0.557335 -3.020363
2011-08-03 06:21:43 51°26.666 2°48.143 22.9634 0.109438 0.55788 -3.020363
2011-08-03 06:21:49 51°26.687 2°48.134 22.9709 0.109438 0.55788 -3.020363
2011-08-03 06:21:54 51°26.705 2°48.126 22.9485 0.109335 0.557335 -3.020363
2011-08-03 06:21:59 51°26.723 2°48.118 22.9677 0.109438 0.557889 -3.020363
2011-08-03 06:22:03 51°26.737 2°48.112 22.957 0.109335 0.557335 -3.020363
2011-08-03 06:22:09 51°26.758 2°48.103 22.9532 0.109438 0.55788 -3.020363
2011-08-03 06:22:14 51°26.776 2°48.095 22.9479 0.109335 0.557343 -3.020363
2011-08-03 06:22:19 51°26.794 2°48.087 22.9677 0.109335 0.557343 -3.020363
2011-08-03 06:22:23 51°26.808 2°48.081 22.9644 0.109438 0.557889 -3.020363
2011-08-03 06:22:28 51°26.826 2°48.073 22.9458 0.109438 0.557889 -3.020363
2011-08-03 06:22:34 51°26.847 2°48.064 22.9491 0.109541 0.558434 -3.020363
2011-08-03 06:22:39 51°26.865 2°48.057 22.9387 0.109438 0.557889 -3.020363
2011-08-03 06:22:43 51°26.88 2°48.052 22.9774 0.109541 0.558443 -3.020363
2011-08-03 06:22:48 51°26.898 2°48.046 22.9534 0.109541 0.558443 -3.020363
2011-08-03 06:22:53 51°26.916 2°48.04 22.967 0.109541 0.558443 -3.020363
2011-08-03 06:22:59 51°26.937 2°48.033 22.9799 0.109541 0.558451 -3.020363
2011-08-03 06:23:03 51°26.951 2°48.028 22.9673 0.109644 0.558988 -3.020363
2011-08-03 06:23:08 51°26.969 2°48.023 22.9668 0.109644 0.558997 -3.020363
2011-08-03 06:23:13 51°26.987 2°48.018 22.9613 0.109644 0.558997 -3.020363
2011-08-03 06:23:19 51°27.009 2°48.012 22.9796 0.109644 0.558997 -3.020363
2011-08-03 06:23:23 51°27.023 2°48.008 22.9856 0.109644 0.559005 -3.020363
2011-08-03 06:23:28 51°27.041 2°48.003 22.9896 0.109644 0.559005 -3.020363
2011-08-03 06:23:34 51°27.063 2°47.997 22.9875 0.109541 0.558469 -3.020363
2011-08-03 06:23:39 51°27.08 2°47.99 22.9821 0.109438 0.557924 -3.020363
2011-08-03 06:23:43 51°27.094 2°47.985 22.9759 0.109335 0.557379 -3.020363
2011-08-03 06:23:48 51°27.112 2°47.977 22.9842 0.109335 0.557379 -3.020363
2011-08-03 06:23:54 51°27.133 2°47.967 22.9824 0.109335 0.557379 -3.020363
2011-08-03 06:23:59 51°27.15 2°47.958 22.9777 0.109335 0.557379 -3.020363
2011-08-03 06:24:03 51°27.164 2°47.951 22.9583 0.109438 0.557933 -3.020363
2011-08-03 06:24:08 51°27.181 2°47.942 22.9628 0.109438 0.557924 -3.020363
2011-08-03 06:24:14 51°27.202 2°47.931 22.9533 0.109541 0.558478 -3.020363
2011-08-03 06:24:19 51°27.219 2°47.922 22.9877 0.109541 0.558478 -3.020363
2011-08-03 06:24:23 51°27.233 2°47.915 22.9782 0.109438 0.557924 -3.020363
2011-08-03 06:24:28 51°27.251 2°47.906 22.9673 0.109438 0.557924 -3.020363
2011-08-03 06:24:34 51°27.271 2°47.896 22.9835 0.109541 0.558469 -3.020363
2011-08-03 06:24:39 51°27.289 2°47.887 22.9734 0.109541 0.558478 -3.020363
2011-08-03 06:24:43 51°27.303 2°47.88 22.9759 0.109541 0.558478 -3.020363
2011-08-03 06:24:47 51°27.317 2°47.873 22.9813 0.109541 0.558478 -3.020363
2011-08-03 06:24:54 51°27.342 2°47.862 22.9717 0.109541 0.558478 -3.020363
2011-08-03 06:24:59 51°27.36 2°47.855 22.9888 0.109644 0.559023 -3.020363
2011-08-03 06:25:03 51°27.374 2°47.849 22.9713 0.109747 0.559569 -3.020363
2011-08-03 06:25:08 51°27.392 2°47.842 22.9934 0.109644 0.559023 -3.020363
2011-08-03 06:25:13 51°27.41 2°47.836 22.9801 0.109747 0.559577 -3.020363
2011-08-03 06:25:19 51°27.431 2°47.829 23.0002 0.109747 0.559577 -3.020363
2011-08-03 06:25:23 51°27.445 2°47.825 22.9826 0.109747 0.559577 -3.020363
2011-08-03 06:25:28 51°27.463 2°47.819 22.9885 0.109644 0.559041 -3.020363
2011-08-03 06:25:33 51°27.481 2°47.813 23.0002 0.109644 0.559041 -3.020363
2011-08-03 06:25:39 51°27.503 2°47.807 22.9901 0.109644 0.55905 -3.020363
2011-08-03 06:25:43 51°27.517 2°47.803 22.9972 0.109644 0.55905 -3.020363
2011-08-03 06:25:48 51°27.535 2°47.798 23.0071 0.109644 0.55905 -3.020363
2011-08-03 06:25:53 51°27.553 2°47.792 23.0157 0.109644 0.55905 -3.020363
2011-08-03 06:25:59 51°27.574 2°47.785 23.0009 0.109541 0.558514 -3.020363
2011-08-03 06:26:03 51°27.589 2°47.78 23.0194 0.109541 0.558514 -3.020363
2011-08-03 06:26:08 51°27.606 2°47.774 22.9918 0.109541 0.558514 -3.020363
2011-08-03 06:26:13 51°27.624 2°47.767 22.9986 0.109438 0.557969 -3.020363
2011-08-03 06:26:19 51°27.646 2°47.759 22.9662 0.109438 0.557969 -3.020363
2011-08-03 06:26:23 51°27.66 2°47.753 22.9958 0.109541 0.558514 -3.020363
2011-08-03 06:26:28 51°27.678 2°47.746 22.9984 0.109541 0.558514 -3.020363
2011-08-03 06:26:34 51°27.699 2°47.738 22.993 0.109644 0.559068 -3.020363
2011-08-03 06:26:39 51°27.717 2°47.73 23.0053 0.109644 0.559068 -3.020363
2011-08-03 06:26:43 51°27.731 2°47.725 22.9797 0.109644 0.559068 -3.020363
2011-08-03 06:26:48 51°27.749 2°47.718 23.0089 0.109644 0.559068 -3.020363
2011-08-03 06:26:54 51°27.77 2°47.71 22.979 0.109644 0.559068 -3.020363
2011-08-03 06:26:59 51°27.788 2°47.703 23.0063 0.109747 0.559613 -3.020363
2011-08-03 06:27:03 51°27.802 2°47.698 22.9866 0.109644 0.559068 -3.020363
2011-08-03 06:27:08 51°27.82 2°47.692 23.0116 0.109747 0.559613 -3.020363
2011-08-03 06:27:14 51°27.841 2°47.685 22.9978 0.109747 0.559622 -3.020363
2011-08-03 06:27:19 51°27.859 2°47.679 22.9915 0.109747 0.559622 -3.020363
2011-08-03 06:27:23 51°27.873 2°47.675 23.0167 0.109747 0.559631 -3.020363
2011-08-03 06:27:28 51°27.891 2°47.669 22.9915 0.109644 0.559077 -3.020363
2011-08-03 06:27:34 51°27.913 2°47.663 23.0168 0.109747 0.559622 -3.020363
2011-08-03 06:27:39 51°27.931 2°47.657 23.0012 0.109644 0.559095 -3.020363
2011-08-03 06:27:43 51°27.945 2°47.652 23.0022 0.109644 0.559086 -3.020363
2011-08-03 06:27:48 51°27.963 2°47.646 23.0289 0.109644 0.559086 -3.020363
2011-08-03 06:27:54 51°27.984 2°47.639 23.005 0.109541 0.558541 -3.020363
2011-08-03 06:27:59 51°28.002 2°47.632 23.02 0.109644 0.559095 -3.020363
2011-08-03 06:28:03 51°28.016 2°47.627 23.0122 0.109438 0.558004 -3.020363
2011-08-03 06:28:08 51°28.034 2°47.619 23.0127 0.109644 0.559095 -3.020363
2011-08-03 06:28:14 51°28.055 2°47.61 23.0062 0.109438 0.558004 -3.020363
2011-08-03 06:28:19 51°28.073 2°47.602 22.993 0.109438 0.558004 -3.020363
2011-08-03 06:28:23 51°28.087 2°47.595 22.9934 0.109541 0.558549 -3.020363
2011-08-03 06:28:28 51°28.104 2°47.587 22.9893 0.109644 0.559095 -3.020363
2011-08-03 06:28:34 51°28.125 2°47.577 23.0193 0.109644 0.559086 -3.020363
2011-08-03 06:28:39 51°28.143 2°47.57 22.9962 0.109644 0.559086 -3.020363
2011-08-03 06:28:43 51°28.157 2°47.564 23.0281 0.109644 0.559095 -3.020363
2011-08-03 06:28:49 51°28.178 2°47.554 23.0088 0.109644 0.559095 -3.020363
2011-08-03 06:28:54 51°28.196 2°47.547 23.0114 0.109541 0.558549 -3.020363
2011-08-03 06:28:59 51°28.214 2°47.539 23.015 0.109747 0.55964 -3.020363
2011-08-03 06:29:03 51°28.228 2°47.534 23.0139 0.109644 0.559095 -3.020363
2011-08-03 06:29:08 51°28.246 2°47.527 23.0235 0.109747 0.559649 -3.020363
2011-08-03 06:29:14 51°28.267 2°47.519 23.0277 0.109747 0.559649 -3.020363
2011-08-03 06:29:19 51°28.285 2°47.512 23.0155 0.109747 0.559649 -3.020363
2011-08-03 06:29:23 51°28.299 2°47.507 23.022 0.109747 0.559649 -3.020363
2011-08-03 06:29:28 51°28.317 2°47.501 22.9987 0.109747 0.559649 -3.020363
2011-08-03 06:29:34 51°28.339 2°47.494 23.0215 0.109747 0.559649 -3.020363
2011-08-03 06:29:39 51°28.357 2°47.488 23.0338 0.109747 0.559649 -3.020363
2011-08-03 06:29:43 51°28.372 2°47.484 23.0361 0.109747 0.559658 -3.020363
2011-08-03 06:29:48 51°28.39 2°47.479 23.0221 0.109747 0.559658 -3.020363
2011-08-03 06:29:53 51°28.408 2°47.474 23.0436 0.109747 0.559667 -3.020363
2011-08-03 06:29:59 51°28.43 2°47.468 23.0404 0.109747 0.559667 -3.020363
2011-08-03 06:30:03 51°28.444 2°47.464 23.0375 0.109747 0.559667 -3.020363
2011-08-03 06:30:08 51°28.462 2°47.458 23.0391 0.109541 0.558585 -3.020363
2011-08-03 06:30:13 51°28.48 2°47.452 23.0309 0.109644 0.55913 -3.020363
2011-08-03 06:30:19 51°28.502 2°47.444 23.0423 0.109644 0.55913 -3.020363
2011-08-03 06:30:23 51°28.516 2°47.438 23.0203 0.109541 0.558585 -3.020363
2011-08-03 06:30:28 51°28.534 2°47.43 23.0442 0.109644 0.55913 -3.020363
2011-08-03 06:30:33 51°28.552 2°47.422 23.0186 0.109541 0.558585 -3.020363
2011-08-03 06:30:39 51°28.573 2°47.412 23.0322 0.109644 0.55913 -3.020363
2011-08-03 06:30:43 51°28.587 2°47.405 23.0467 0.109541 0.558585 -3.020363
2011-08-03 06:30:47 51°28.601 2°47.399 23.0186 0.109541 0.558585 -3.020363
2011-08-03 06:30:54 51°28.626 2°47.388 23.0187 0.109541 0.558594 -3.020363
2011-08-03 06:30:59 51°28.644 2°47.38 23.0202 0.109541 0.558585 -3.020363
2011-08-03 06:31:03 51°28.658 2°47.374 23.0284 0.109747 0.559676 -3.020363
2011-08-03 06:31:08 51°28.676 2°47.367 23.0384 0.109644 0.559139 -3.020363
2011-08-03 06:31:14 51°28.698 2°47.358 23.0122 0.109747 0.559685 -3.020363
2011-08-03 06:31:19 51°28.716 2°47.351 23.0313 0.109747 0.559685 -3.020363
2011-08-03 06:31:23 51°28.73 2°47.347 23.0276 0.109747 0.559676 -3.020363
2011-08-03 06:31:28 51°28.748 2°47.341 23.0339 0.109747 0.559685 -3.020363
2011-08-03 06:31:34 51°28.77 2°47.334 23.0472 0.109747 0.559685 -3.020363
2011-08-03 06:31:39 51°28.788 2°47.329 23.028 0.109952 0.560784 -3.020363
2011-08-03 06:31:43 51°28.803 2°47.325 23.0488 0.109747 0.559694 -3.020363
2011-08-03 06:31:48 51°28.821 2°47.32 23.0288 0.109747 0.559694 -3.020363
2011-08-03 06:31:53 51°28.839 2°47.315 23.0556 0.109849 0.560239 -3.020363
2011-08-03 06:31:59 51°28.861 2°47.309 23.0465 0.109747 0.559702 -3.020363
2011-08-03 06:32:03 51°28.875 2°47.305 23.0464 0.109747 0.559702 -3.020363
2011-08-03 06:32:08 51°28.893 2°47.299 23.0539 0.109644 0.559166 -3.020363
2011-08-03 06:32:13 51°28.911 2°47.293 23.049 0.109644 0.559166 -3.020363
2011-08-03 06:32:19 51°28.933 2°47.285 23.0688 0.109644 0.559166 -3.020363
2011-08-03 06:32:23 51°28.947 2°47.279 23.0499 0.109644 0.559166 -3.020363
2011-08-03 06:32:28 51°28.965 2°47.271 23.0484 0.109541 0.558621 -3.020363
2011-08-03 06:32:33 51°28.983 2°47.263 23.0397 0.109644 0.559166 -3.020363
2011-08-03 06:32:39 51°29.004 2°47.254 23.0498 0.109644 0.559175 -3.020363